<?xml version="1.0" encoding="UTF-8" standalone="no" ?>
<gpx xmlns="http://www.topografix.com/GPX/1/1" xmlns:xsi="http://www.w3.org/2001/XMLSchema-instance" xsi:schemaLocation="http://www.topografix.com/GPX/1/1 http://www.topografix.com/GPX/1/1/gpx.xsd" version="1.1" creator="VisuGPX - https://www.visugpx.com">
  <metadata>
    <name>-Tartonne - Digne 4éme étape</name>
    <desc><![CDATA[08.08.2018]]></desc>
  </metadata>
  <trk>
    <name><![CDATA[9058440-Tartonne - Digne 4éme étape]]></name>
    <extensions>
      <line xmlns="http://www.topografix.com/GPX/gpx_style/0/2">
        <color>0000FF</color>
        <width>4</width>
      </line>
    </extensions>
    <trkseg>
      <trkpt lat="44.06698" lon="6.38929">
        <ele>942</ele>
        <time>2022-06-08T20:44:22Z</time>
      </trkpt>
      <trkpt lat="44.06706" lon="6.38941">
        <ele>942</ele>
        <time>2022-06-08T20:44:25Z</time>
      </trkpt>
      <trkpt lat="44.06705" lon="6.38947">
        <ele>942</ele>
        <time>2022-06-08T20:44:26Z</time>
      </trkpt>
      <trkpt lat="44.06699" lon="6.38951">
        <ele>942</ele>
        <time>2022-06-08T20:44:27Z</time>
      </trkpt>
      <trkpt lat="44.06675" lon="6.38947">
        <ele>941</ele>
        <time>2022-06-08T20:44:33Z</time>
      </trkpt>
      <trkpt lat="44.06669" lon="6.38944">
        <ele>940</ele>
        <time>2022-06-08T20:44:34Z</time>
      </trkpt>
      <trkpt lat="44.06665" lon="6.3894">
        <ele>940</ele>
        <time>2022-06-08T20:44:36Z</time>
      </trkpt>
      <trkpt lat="44.06663" lon="6.38933">
        <ele>940</ele>
        <time>2022-06-08T20:44:37Z</time>
      </trkpt>
      <trkpt lat="44.0666" lon="6.38891">
        <ele>940</ele>
        <time>2022-06-08T20:44:44Z</time>
      </trkpt>
      <trkpt lat="44.06666" lon="6.38877">
        <ele>940</ele>
        <time>2022-06-08T20:44:47Z</time>
      </trkpt>
      <trkpt lat="44.06675" lon="6.38876">
        <ele>941</ele>
        <time>2022-06-08T20:44:49Z</time>
      </trkpt>
      <trkpt lat="44.06695" lon="6.38851">
        <ele>942</ele>
        <time>2022-06-08T20:44:55Z</time>
      </trkpt>
      <trkpt lat="44.06708" lon="6.38842">
        <ele>943</ele>
        <time>2022-06-08T20:44:58Z</time>
      </trkpt>
      <trkpt lat="44.06728" lon="6.38821">
        <ele>946</ele>
        <time>2022-06-08T20:45:04Z</time>
      </trkpt>
      <trkpt lat="44.06734" lon="6.38798">
        <ele>946</ele>
        <time>2022-06-08T20:45:08Z</time>
      </trkpt>
      <trkpt lat="44.06756" lon="6.38762">
        <ele>948</ele>
        <time>2022-06-08T20:45:16Z</time>
      </trkpt>
      <trkpt lat="44.0678" lon="6.38707">
        <ele>947</ele>
        <time>2022-06-08T20:45:27Z</time>
      </trkpt>
      <trkpt lat="44.06782" lon="6.38686">
        <ele>946</ele>
        <time>2022-06-08T20:45:31Z</time>
      </trkpt>
      <trkpt lat="44.06795" lon="6.38641">
        <ele>944</ele>
        <time>2022-06-08T20:45:39Z</time>
      </trkpt>
      <trkpt lat="44.06815" lon="6.38533">
        <ele>941</ele>
        <time>2022-06-08T20:45:58Z</time>
      </trkpt>
      <trkpt lat="44.06817" lon="6.38485">
        <ele>940</ele>
        <time>2022-06-08T20:46:06Z</time>
      </trkpt>
      <trkpt lat="44.0684" lon="6.38403">
        <ele>941</ele>
        <time>2022-06-08T20:46:20Z</time>
      </trkpt>
      <trkpt lat="44.06846" lon="6.38239">
        <ele>944</ele>
        <time>2022-06-08T20:46:48Z</time>
      </trkpt>
      <trkpt lat="44.06868" lon="6.38211">
        <ele>947</ele>
        <time>2022-06-08T20:46:55Z</time>
      </trkpt>
      <trkpt lat="44.06887" lon="6.38196">
        <ele>949</ele>
        <time>2022-06-08T20:47:00Z</time>
      </trkpt>
      <trkpt lat="44.0689" lon="6.38166">
        <ele>952</ele>
        <time>2022-06-08T20:47:05Z</time>
      </trkpt>
      <trkpt lat="44.06853" lon="6.38101">
        <ele>958</ele>
        <time>2022-06-08T20:47:19Z</time>
      </trkpt>
      <trkpt lat="44.06823" lon="6.38103">
        <ele>957</ele>
        <time>2022-06-08T20:47:26Z</time>
      </trkpt>
      <trkpt lat="44.06812" lon="6.38069">
        <ele>961</ele>
        <time>2022-06-08T20:47:32Z</time>
      </trkpt>
      <trkpt lat="44.06808" lon="6.38023">
        <ele>965</ele>
        <time>2022-06-08T20:47:40Z</time>
      </trkpt>
      <trkpt lat="44.06801" lon="6.38015">
        <ele>967</ele>
        <time>2022-06-08T20:47:42Z</time>
      </trkpt>
      <trkpt lat="44.06797" lon="6.38016">
        <ele>967</ele>
        <time>2022-06-08T20:47:43Z</time>
      </trkpt>
      <trkpt lat="44.06793" lon="6.38021">
        <ele>967</ele>
        <time>2022-06-08T20:47:44Z</time>
      </trkpt>
      <trkpt lat="44.06775" lon="6.38058">
        <ele>966</ele>
        <time>2022-06-08T20:47:52Z</time>
      </trkpt>
      <trkpt lat="44.06755" lon="6.38087">
        <ele>965</ele>
        <time>2022-06-08T20:47:59Z</time>
      </trkpt>
      <trkpt lat="44.06737" lon="6.38103">
        <ele>962</ele>
        <time>2022-06-08T20:48:04Z</time>
      </trkpt>
      <trkpt lat="44.0671" lon="6.38098">
        <ele>963</ele>
        <time>2022-06-08T20:48:10Z</time>
      </trkpt>
      <trkpt lat="44.06683" lon="6.38089">
        <ele>965</ele>
        <time>2022-06-08T20:48:16Z</time>
      </trkpt>
      <trkpt lat="44.06676" lon="6.38061">
        <ele>969</ele>
        <time>2022-06-08T20:48:21Z</time>
      </trkpt>
      <trkpt lat="44.06679" lon="6.38029">
        <ele>974</ele>
        <time>2022-06-08T20:48:27Z</time>
      </trkpt>
      <trkpt lat="44.067" lon="6.38016">
        <ele>975</ele>
        <time>2022-06-08T20:48:32Z</time>
      </trkpt>
      <trkpt lat="44.06707" lon="6.37976">
        <ele>981</ele>
        <time>2022-06-08T20:48:39Z</time>
      </trkpt>
      <trkpt lat="44.06703" lon="6.37969">
        <ele>982</ele>
        <time>2022-06-08T20:48:41Z</time>
      </trkpt>
      <trkpt lat="44.06699" lon="6.37967">
        <ele>982</ele>
        <time>2022-06-08T20:48:42Z</time>
      </trkpt>
      <trkpt lat="44.067" lon="6.37963">
        <ele>983</ele>
        <time>2022-06-08T20:48:42Z</time>
      </trkpt>
      <trkpt lat="44.06693" lon="6.37956">
        <ele>984</ele>
        <time>2022-06-08T20:48:44Z</time>
      </trkpt>
      <trkpt lat="44.06691" lon="6.37946">
        <ele>986</ele>
        <time>2022-06-08T20:48:46Z</time>
      </trkpt>
      <trkpt lat="44.06763" lon="6.37853">
        <ele>998</ele>
        <time>2022-06-08T20:49:09Z</time>
      </trkpt>
      <trkpt lat="44.06779" lon="6.37825">
        <ele>1002</ele>
        <time>2022-06-08T20:49:15Z</time>
      </trkpt>
      <trkpt lat="44.06766" lon="6.37772">
        <ele>1005</ele>
        <time>2022-06-08T20:49:24Z</time>
      </trkpt>
      <trkpt lat="44.0675" lon="6.37727">
        <ele>1009</ele>
        <time>2022-06-08T20:49:33Z</time>
      </trkpt>
      <trkpt lat="44.0667" lon="6.37619">
        <ele>1014</ele>
        <time>2022-06-08T20:49:59Z</time>
      </trkpt>
      <trkpt lat="44.06653" lon="6.37601">
        <ele>1016</ele>
        <time>2022-06-08T20:50:04Z</time>
      </trkpt>
      <trkpt lat="44.06598" lon="6.3756">
        <ele>1014</ele>
        <time>2022-06-08T20:50:18Z</time>
      </trkpt>
      <trkpt lat="44.06586" lon="6.37557">
        <ele>1013</ele>
        <time>2022-06-08T20:50:21Z</time>
      </trkpt>
      <trkpt lat="44.06578" lon="6.37559">
        <ele>1011</ele>
        <time>2022-06-08T20:50:23Z</time>
      </trkpt>
      <trkpt lat="44.06512" lon="6.37583">
        <ele>1003</ele>
        <time>2022-06-08T20:50:39Z</time>
      </trkpt>
      <trkpt lat="44.06504" lon="6.37584">
        <ele>1002</ele>
        <time>2022-06-08T20:50:41Z</time>
      </trkpt>
      <trkpt lat="44.06495" lon="6.37583">
        <ele>1002</ele>
        <time>2022-06-08T20:50:43Z</time>
      </trkpt>
      <trkpt lat="44.06476" lon="6.37553">
        <ele>1004</ele>
        <time>2022-06-08T20:50:50Z</time>
      </trkpt>
      <trkpt lat="44.06471" lon="6.37528">
        <ele>1006</ele>
        <time>2022-06-08T20:50:54Z</time>
      </trkpt>
      <trkpt lat="44.06464" lon="6.37513">
        <ele>1007</ele>
        <time>2022-06-08T20:50:57Z</time>
      </trkpt>
      <trkpt lat="44.06442" lon="6.37479">
        <ele>1007</ele>
        <time>2022-06-08T20:51:05Z</time>
      </trkpt>
      <trkpt lat="44.0644" lon="6.37435">
        <ele>1008</ele>
        <time>2022-06-08T20:51:12Z</time>
      </trkpt>
      <trkpt lat="44.0646" lon="6.37384">
        <ele>1010</ele>
        <time>2022-06-08T20:51:22Z</time>
      </trkpt>
      <trkpt lat="44.06461" lon="6.3737">
        <ele>1010</ele>
        <time>2022-06-08T20:51:24Z</time>
      </trkpt>
      <trkpt lat="44.06459" lon="6.37364">
        <ele>1010</ele>
        <time>2022-06-08T20:51:25Z</time>
      </trkpt>
      <trkpt lat="44.0642" lon="6.37313">
        <ele>1003</ele>
        <time>2022-06-08T20:51:38Z</time>
      </trkpt>
      <trkpt lat="44.06412" lon="6.3729">
        <ele>1004</ele>
        <time>2022-06-08T20:51:42Z</time>
      </trkpt>
      <trkpt lat="44.06405" lon="6.37252">
        <ele>1006</ele>
        <time>2022-06-08T20:51:49Z</time>
      </trkpt>
      <trkpt lat="44.064" lon="6.37242">
        <ele>1006</ele>
        <time>2022-06-08T20:51:51Z</time>
      </trkpt>
      <trkpt lat="44.06371" lon="6.37211">
        <ele>1005</ele>
        <time>2022-06-08T20:51:59Z</time>
      </trkpt>
      <trkpt lat="44.06328" lon="6.37151">
        <ele>1003</ele>
        <time>2022-06-08T20:52:14Z</time>
      </trkpt>
      <trkpt lat="44.06323" lon="6.37137">
        <ele>1002</ele>
        <time>2022-06-08T20:52:16Z</time>
      </trkpt>
      <trkpt lat="44.063" lon="6.37027">
        <ele>1004</ele>
        <time>2022-06-08T20:52:35Z</time>
      </trkpt>
      <trkpt lat="44.06282" lon="6.36972">
        <ele>1005</ele>
        <time>2022-06-08T20:52:46Z</time>
      </trkpt>
      <trkpt lat="44.06256" lon="6.36933">
        <ele>1006</ele>
        <time>2022-06-08T20:52:55Z</time>
      </trkpt>
      <trkpt lat="44.06179" lon="6.36832">
        <ele>1008</ele>
        <time>2022-06-08T20:53:19Z</time>
      </trkpt>
      <trkpt lat="44.06162" lon="6.3678">
        <ele>1008</ele>
        <time>2022-06-08T20:53:29Z</time>
      </trkpt>
      <trkpt lat="44.06166" lon="6.3672">
        <ele>1010</ele>
        <time>2022-06-08T20:53:39Z</time>
      </trkpt>
      <trkpt lat="44.06164" lon="6.36724">
        <ele>1010</ele>
        <time>2022-06-08T20:53:40Z</time>
      </trkpt>
      <trkpt lat="44.06166" lon="6.3673">
        <ele>1011</ele>
        <time>2022-06-08T20:53:41Z</time>
      </trkpt>
      <trkpt lat="44.06172" lon="6.36735">
        <ele>1012</ele>
        <time>2022-06-08T20:53:43Z</time>
      </trkpt>
      <trkpt lat="44.06205" lon="6.36732">
        <ele>1019</ele>
        <time>2022-06-08T20:53:50Z</time>
      </trkpt>
      <trkpt lat="44.0622" lon="6.36718">
        <ele>1021</ele>
        <time>2022-06-08T20:53:54Z</time>
      </trkpt>
      <trkpt lat="44.06238" lon="6.36673">
        <ele>1025</ele>
        <time>2022-06-08T20:54:03Z</time>
      </trkpt>
      <trkpt lat="44.06254" lon="6.36661">
        <ele>1027</ele>
        <time>2022-06-08T20:54:07Z</time>
      </trkpt>
      <trkpt lat="44.06272" lon="6.36659">
        <ele>1031</ele>
        <time>2022-06-08T20:54:12Z</time>
      </trkpt>
      <trkpt lat="44.06278" lon="6.36663">
        <ele>1032</ele>
        <time>2022-06-08T20:54:13Z</time>
      </trkpt>
      <trkpt lat="44.06288" lon="6.36677">
        <ele>1034</ele>
        <time>2022-06-08T20:54:16Z</time>
      </trkpt>
      <trkpt lat="44.06293" lon="6.36693">
        <ele>1036</ele>
        <time>2022-06-08T20:54:19Z</time>
      </trkpt>
      <trkpt lat="44.06295" lon="6.36712">
        <ele>1036</ele>
        <time>2022-06-08T20:54:23Z</time>
      </trkpt>
      <trkpt lat="44.06306" lon="6.36736">
        <ele>1039</ele>
        <time>2022-06-08T20:54:27Z</time>
      </trkpt>
      <trkpt lat="44.06318" lon="6.36738">
        <ele>1041</ele>
        <time>2022-06-08T20:54:30Z</time>
      </trkpt>
      <trkpt lat="44.06338" lon="6.36734">
        <ele>1045</ele>
        <time>2022-06-08T20:54:35Z</time>
      </trkpt>
      <trkpt lat="44.0636" lon="6.36725">
        <ele>1049</ele>
        <time>2022-06-08T20:54:40Z</time>
      </trkpt>
      <trkpt lat="44.06377" lon="6.36741">
        <ele>1052</ele>
        <time>2022-06-08T20:54:45Z</time>
      </trkpt>
      <trkpt lat="44.06388" lon="6.36771">
        <ele>1053</ele>
        <time>2022-06-08T20:54:51Z</time>
      </trkpt>
      <trkpt lat="44.06401" lon="6.36795">
        <ele>1053</ele>
        <time>2022-06-08T20:54:56Z</time>
      </trkpt>
      <trkpt lat="44.06409" lon="6.36801">
        <ele>1054</ele>
        <time>2022-06-08T20:54:58Z</time>
      </trkpt>
      <trkpt lat="44.06417" lon="6.368">
        <ele>1055</ele>
        <time>2022-06-08T20:55:00Z</time>
      </trkpt>
      <trkpt lat="44.06426" lon="6.36789">
        <ele>1058</ele>
        <time>2022-06-08T20:55:03Z</time>
      </trkpt>
      <trkpt lat="44.06421" lon="6.36748">
        <ele>1061</ele>
        <time>2022-06-08T20:55:10Z</time>
      </trkpt>
      <trkpt lat="44.06423" lon="6.36715">
        <ele>1061</ele>
        <time>2022-06-08T20:55:15Z</time>
      </trkpt>
      <trkpt lat="44.06435" lon="6.36684">
        <ele>1064</ele>
        <time>2022-06-08T20:55:21Z</time>
      </trkpt>
      <trkpt lat="44.06456" lon="6.36664">
        <ele>1069</ele>
        <time>2022-06-08T20:55:27Z</time>
      </trkpt>
      <trkpt lat="44.06489" lon="6.3662">
        <ele>1074</ele>
        <time>2022-06-08T20:55:38Z</time>
      </trkpt>
      <trkpt lat="44.06504" lon="6.36605">
        <ele>1076</ele>
        <time>2022-06-08T20:55:42Z</time>
      </trkpt>
      <trkpt lat="44.06566" lon="6.3658">
        <ele>1086</ele>
        <time>2022-06-08T20:55:57Z</time>
      </trkpt>
      <trkpt lat="44.06623" lon="6.36548">
        <ele>1096</ele>
        <time>2022-06-08T20:56:11Z</time>
      </trkpt>
      <trkpt lat="44.06652" lon="6.36522">
        <ele>1099</ele>
        <time>2022-06-08T20:56:19Z</time>
      </trkpt>
      <trkpt lat="44.0668" lon="6.36477">
        <ele>1099</ele>
        <time>2022-06-08T20:56:29Z</time>
      </trkpt>
      <trkpt lat="44.06701" lon="6.36435">
        <ele>1098</ele>
        <time>2022-06-08T20:56:38Z</time>
      </trkpt>
      <trkpt lat="44.06723" lon="6.36417">
        <ele>1100</ele>
        <time>2022-06-08T20:56:44Z</time>
      </trkpt>
      <trkpt lat="44.06746" lon="6.36406">
        <ele>1101</ele>
        <time>2022-06-08T20:56:50Z</time>
      </trkpt>
      <trkpt lat="44.06752" lon="6.36407">
        <ele>1103</ele>
        <time>2022-06-08T20:56:51Z</time>
      </trkpt>
      <trkpt lat="44.06752" lon="6.36411">
        <ele>1104</ele>
        <time>2022-06-08T20:56:52Z</time>
      </trkpt>
      <trkpt lat="44.06748" lon="6.36408">
        <ele>1102</ele>
        <time>2022-06-08T20:56:53Z</time>
      </trkpt>
      <trkpt lat="44.06747" lon="6.36403">
        <ele>1100</ele>
        <time>2022-06-08T20:56:54Z</time>
      </trkpt>
      <trkpt lat="44.06747" lon="6.36408">
        <ele>1102</ele>
        <time>2022-06-08T20:56:54Z</time>
      </trkpt>
      <trkpt lat="44.06745" lon="6.36404">
        <ele>1099</ele>
        <time>2022-06-08T20:56:55Z</time>
      </trkpt>
      <trkpt lat="44.06744" lon="6.36406">
        <ele>1100</ele>
        <time>2022-06-08T20:56:56Z</time>
      </trkpt>
      <trkpt lat="44.06748" lon="6.36406">
        <ele>1101</ele>
        <time>2022-06-08T20:56:57Z</time>
      </trkpt>
      <trkpt lat="44.06747" lon="6.36404">
        <ele>1100</ele>
        <time>2022-06-08T20:56:57Z</time>
      </trkpt>
      <trkpt lat="44.06747" lon="6.36408">
        <ele>1102</ele>
        <time>2022-06-08T20:56:58Z</time>
      </trkpt>
      <trkpt lat="44.06747" lon="6.36406">
        <ele>1101</ele>
        <time>2022-06-08T20:56:58Z</time>
      </trkpt>
      <trkpt lat="44.06753" lon="6.36409">
        <ele>1104</ele>
        <time>2022-06-08T20:57:00Z</time>
      </trkpt>
      <trkpt lat="44.06753" lon="6.36406">
        <ele>1102</ele>
        <time>2022-06-08T20:57:00Z</time>
      </trkpt>
      <trkpt lat="44.06802" lon="6.36382">
        <ele>1108</ele>
        <time>2022-06-08T20:57:12Z</time>
      </trkpt>
      <trkpt lat="44.06838" lon="6.36351">
        <ele>1106</ele>
        <time>2022-06-08T20:57:22Z</time>
      </trkpt>
      <trkpt lat="44.06868" lon="6.36317">
        <ele>1105</ele>
        <time>2022-06-08T20:57:31Z</time>
      </trkpt>
      <trkpt lat="44.06892" lon="6.36282">
        <ele>1103</ele>
        <time>2022-06-08T20:57:39Z</time>
      </trkpt>
      <trkpt lat="44.0698" lon="6.36138">
        <ele>1104</ele>
        <time>2022-06-08T20:58:11Z</time>
      </trkpt>
      <trkpt lat="44.07025" lon="6.36069">
        <ele>1101</ele>
        <time>2022-06-08T20:58:27Z</time>
      </trkpt>
      <trkpt lat="44.07076" lon="6.36019">
        <ele>1101</ele>
        <time>2022-06-08T20:58:41Z</time>
      </trkpt>
      <trkpt lat="44.07121" lon="6.35991">
        <ele>1103</ele>
        <time>2022-06-08T20:58:53Z</time>
      </trkpt>
      <trkpt lat="44.07163" lon="6.35969">
        <ele>1106</ele>
        <time>2022-06-08T20:59:03Z</time>
      </trkpt>
      <trkpt lat="44.07235" lon="6.35942">
        <ele>1109</ele>
        <time>2022-06-08T20:59:21Z</time>
      </trkpt>
      <trkpt lat="44.07264" lon="6.35934">
        <ele>1110</ele>
        <time>2022-06-08T20:59:27Z</time>
      </trkpt>
      <trkpt lat="44.07318" lon="6.35925">
        <ele>1115</ele>
        <time>2022-06-08T20:59:40Z</time>
      </trkpt>
      <trkpt lat="44.07343" lon="6.35916">
        <ele>1116</ele>
        <time>2022-06-08T20:59:46Z</time>
      </trkpt>
      <trkpt lat="44.07416" lon="6.35902">
        <ele>1121</ele>
        <time>2022-06-08T21:00:03Z</time>
      </trkpt>
      <trkpt lat="44.07429" lon="6.35897">
        <ele>1120</ele>
        <time>2022-06-08T21:00:07Z</time>
      </trkpt>
      <trkpt lat="44.0747" lon="6.35891">
        <ele>1121</ele>
        <time>2022-06-08T21:00:16Z</time>
      </trkpt>
      <trkpt lat="44.07553" lon="6.35868">
        <ele>1127</ele>
        <time>2022-06-08T21:00:36Z</time>
      </trkpt>
      <trkpt lat="44.07667" lon="6.35849">
        <ele>1131</ele>
        <time>2022-06-08T21:01:03Z</time>
      </trkpt>
      <trkpt lat="44.07692" lon="6.35849">
        <ele>1137</ele>
        <time>2022-06-08T21:01:09Z</time>
      </trkpt>
      <trkpt lat="44.0777" lon="6.35841">
        <ele>1151</ele>
        <time>2022-06-08T21:01:27Z</time>
      </trkpt>
      <trkpt lat="44.07799" lon="6.35826">
        <ele>1152</ele>
        <time>2022-06-08T21:01:34Z</time>
      </trkpt>
      <trkpt lat="44.07822" lon="6.35821">
        <ele>1156</ele>
        <time>2022-06-08T21:01:39Z</time>
      </trkpt>
      <trkpt lat="44.07862" lon="6.35793">
        <ele>1157</ele>
        <time>2022-06-08T21:01:50Z</time>
      </trkpt>
      <trkpt lat="44.07882" lon="6.35771">
        <ele>1156</ele>
        <time>2022-06-08T21:01:56Z</time>
      </trkpt>
      <trkpt lat="44.07944" lon="6.35723">
        <ele>1166</ele>
        <time>2022-06-08T21:02:12Z</time>
      </trkpt>
      <trkpt lat="44.07959" lon="6.35705">
        <ele>1166</ele>
        <time>2022-06-08T21:02:17Z</time>
      </trkpt>
      <trkpt lat="44.08007" lon="6.35677">
        <ele>1175</ele>
        <time>2022-06-08T21:02:29Z</time>
      </trkpt>
      <trkpt lat="44.08046" lon="6.3565">
        <ele>1178</ele>
        <time>2022-06-08T21:02:39Z</time>
      </trkpt>
      <trkpt lat="44.08077" lon="6.35625">
        <ele>1180</ele>
        <time>2022-06-08T21:02:48Z</time>
      </trkpt>
      <trkpt lat="44.08134" lon="6.35602">
        <ele>1185</ele>
        <time>2022-06-08T21:03:02Z</time>
      </trkpt>
      <trkpt lat="44.08174" lon="6.35581">
        <ele>1187</ele>
        <time>2022-06-08T21:03:12Z</time>
      </trkpt>
      <trkpt lat="44.08233" lon="6.35556">
        <ele>1195</ele>
        <time>2022-06-08T21:03:26Z</time>
      </trkpt>
      <trkpt lat="44.08275" lon="6.3554">
        <ele>1199</ele>
        <time>2022-06-08T21:03:36Z</time>
      </trkpt>
      <trkpt lat="44.08303" lon="6.35534">
        <ele>1202</ele>
        <time>2022-06-08T21:03:43Z</time>
      </trkpt>
      <trkpt lat="44.08345" lon="6.35502">
        <ele>1202</ele>
        <time>2022-06-08T21:03:54Z</time>
      </trkpt>
      <trkpt lat="44.08365" lon="6.35493">
        <ele>1204</ele>
        <time>2022-06-08T21:03:59Z</time>
      </trkpt>
      <trkpt lat="44.08456" lon="6.35462">
        <ele>1215</ele>
        <time>2022-06-08T21:04:21Z</time>
      </trkpt>
      <trkpt lat="44.08535" lon="6.35439">
        <ele>1222</ele>
        <time>2022-06-08T21:04:40Z</time>
      </trkpt>
      <trkpt lat="44.08593" lon="6.35417">
        <ele>1224</ele>
        <time>2022-06-08T21:04:54Z</time>
      </trkpt>
      <trkpt lat="44.08627" lon="6.35409">
        <ele>1229</ele>
        <time>2022-06-08T21:05:02Z</time>
      </trkpt>
      <trkpt lat="44.08649" lon="6.35401">
        <ele>1232</ele>
        <time>2022-06-08T21:05:07Z</time>
      </trkpt>
      <trkpt lat="44.08665" lon="6.3539">
        <ele>1233</ele>
        <time>2022-06-08T21:05:11Z</time>
      </trkpt>
      <trkpt lat="44.08687" lon="6.3538">
        <ele>1235</ele>
        <time>2022-06-08T21:05:17Z</time>
      </trkpt>
      <trkpt lat="44.08712" lon="6.35375">
        <ele>1239</ele>
        <time>2022-06-08T21:05:23Z</time>
      </trkpt>
      <trkpt lat="44.0879" lon="6.35364">
        <ele>1249</ele>
        <time>2022-06-08T21:05:41Z</time>
      </trkpt>
      <trkpt lat="44.088" lon="6.35364">
        <ele>1251</ele>
        <time>2022-06-08T21:05:43Z</time>
      </trkpt>
      <trkpt lat="44.08804" lon="6.35368">
        <ele>1254</ele>
        <time>2022-06-08T21:05:44Z</time>
      </trkpt>
      <trkpt lat="44.08803" lon="6.35378">
        <ele>1257</ele>
        <time>2022-06-08T21:05:46Z</time>
      </trkpt>
      <trkpt lat="44.08786" lon="6.35388">
        <ele>1258</ele>
        <time>2022-06-08T21:05:50Z</time>
      </trkpt>
      <trkpt lat="44.08757" lon="6.35412">
        <ele>1261</ele>
        <time>2022-06-08T21:05:58Z</time>
      </trkpt>
      <trkpt lat="44.08711" lon="6.35466">
        <ele>1266</ele>
        <time>2022-06-08T21:06:12Z</time>
      </trkpt>
      <trkpt lat="44.08705" lon="6.35477">
        <ele>1268</ele>
        <time>2022-06-08T21:06:15Z</time>
      </trkpt>
      <trkpt lat="44.08704" lon="6.35489">
        <ele>1271</ele>
        <time>2022-06-08T21:06:17Z</time>
      </trkpt>
      <trkpt lat="44.08703" lon="6.35487">
        <ele>1270</ele>
        <time>2022-06-08T21:06:17Z</time>
      </trkpt>
      <trkpt lat="44.08706" lon="6.35486">
        <ele>1271</ele>
        <time>2022-06-08T21:06:18Z</time>
      </trkpt>
      <trkpt lat="44.08701" lon="6.35488">
        <ele>1270</ele>
        <time>2022-06-08T21:06:19Z</time>
      </trkpt>
      <trkpt lat="44.08702" lon="6.35486">
        <ele>1270</ele>
        <time>2022-06-08T21:06:19Z</time>
      </trkpt>
      <trkpt lat="44.08705" lon="6.35488">
        <ele>1271</ele>
        <time>2022-06-08T21:06:20Z</time>
      </trkpt>
      <trkpt lat="44.08701" lon="6.35485">
        <ele>1269</ele>
        <time>2022-06-08T21:06:21Z</time>
      </trkpt>
      <trkpt lat="44.08703" lon="6.35489">
        <ele>1271</ele>
        <time>2022-06-08T21:06:22Z</time>
      </trkpt>
      <trkpt lat="44.08699" lon="6.35503">
        <ele>1274</ele>
        <time>2022-06-08T21:06:25Z</time>
      </trkpt>
      <trkpt lat="44.08678" lon="6.35539">
        <ele>1276</ele>
        <time>2022-06-08T21:06:32Z</time>
      </trkpt>
      <trkpt lat="44.0868" lon="6.35546">
        <ele>1279</ele>
        <time>2022-06-08T21:06:34Z</time>
      </trkpt>
      <trkpt lat="44.0869" lon="6.35547">
        <ele>1282</ele>
        <time>2022-06-08T21:06:36Z</time>
      </trkpt>
      <trkpt lat="44.08701" lon="6.35544">
        <ele>1284</ele>
        <time>2022-06-08T21:06:39Z</time>
      </trkpt>
      <trkpt lat="44.08703" lon="6.35541">
        <ele>1284</ele>
        <time>2022-06-08T21:06:39Z</time>
      </trkpt>
      <trkpt lat="44.08702" lon="6.35543">
        <ele>1284</ele>
        <time>2022-06-08T21:06:40Z</time>
      </trkpt>
      <trkpt lat="44.08732" lon="6.35538">
        <ele>1291</ele>
        <time>2022-06-08T21:06:47Z</time>
      </trkpt>
      <trkpt lat="44.0873" lon="6.35536">
        <ele>1290</ele>
        <time>2022-06-08T21:06:47Z</time>
      </trkpt>
      <trkpt lat="44.08733" lon="6.35535">
        <ele>1291</ele>
        <time>2022-06-08T21:06:48Z</time>
      </trkpt>
      <trkpt lat="44.08743" lon="6.35536">
        <ele>1294</ele>
        <time>2022-06-08T21:06:50Z</time>
      </trkpt>
      <trkpt lat="44.08762" lon="6.35555">
        <ele>1301</ele>
        <time>2022-06-08T21:06:56Z</time>
      </trkpt>
      <trkpt lat="44.0878" lon="6.35584">
        <ele>1308</ele>
        <time>2022-06-08T21:07:02Z</time>
      </trkpt>
      <trkpt lat="44.08787" lon="6.35635">
        <ele>1316</ele>
        <time>2022-06-08T21:07:11Z</time>
      </trkpt>
      <trkpt lat="44.08807" lon="6.35685">
        <ele>1326</ele>
        <time>2022-06-08T21:07:20Z</time>
      </trkpt>
      <trkpt lat="44.08835" lon="6.35734">
        <ele>1332</ele>
        <time>2022-06-08T21:07:31Z</time>
      </trkpt>
      <trkpt lat="44.08842" lon="6.35752">
        <ele>1335</ele>
        <time>2022-06-08T21:07:34Z</time>
      </trkpt>
      <trkpt lat="44.08845" lon="6.35771">
        <ele>1341</ele>
        <time>2022-06-08T21:07:38Z</time>
      </trkpt>
      <trkpt lat="44.08857" lon="6.35783">
        <ele>1346</ele>
        <time>2022-06-08T21:07:41Z</time>
      </trkpt>
      <trkpt lat="44.08861" lon="6.35783">
        <ele>1347</ele>
        <time>2022-06-08T21:07:42Z</time>
      </trkpt>
      <trkpt lat="44.08882" lon="6.35746">
        <ele>1344</ele>
        <time>2022-06-08T21:07:50Z</time>
      </trkpt>
      <trkpt lat="44.08891" lon="6.35719">
        <ele>1344</ele>
        <time>2022-06-08T21:07:55Z</time>
      </trkpt>
      <trkpt lat="44.08899" lon="6.35673">
        <ele>1343</ele>
        <time>2022-06-08T21:08:03Z</time>
      </trkpt>
      <trkpt lat="44.08908" lon="6.35651">
        <ele>1343</ele>
        <time>2022-06-08T21:08:07Z</time>
      </trkpt>
      <trkpt lat="44.08923" lon="6.35635">
        <ele>1344</ele>
        <time>2022-06-08T21:08:12Z</time>
      </trkpt>
      <trkpt lat="44.08952" lon="6.35613">
        <ele>1351</ele>
        <time>2022-06-08T21:08:19Z</time>
      </trkpt>
      <trkpt lat="44.08962" lon="6.35608">
        <ele>1354</ele>
        <time>2022-06-08T21:08:22Z</time>
      </trkpt>
      <trkpt lat="44.08964" lon="6.35612">
        <ele>1355</ele>
        <time>2022-06-08T21:08:23Z</time>
      </trkpt>
      <trkpt lat="44.08952" lon="6.35634">
        <ele>1355</ele>
        <time>2022-06-08T21:08:27Z</time>
      </trkpt>
      <trkpt lat="44.08947" lon="6.3566">
        <ele>1359</ele>
        <time>2022-06-08T21:08:32Z</time>
      </trkpt>
      <trkpt lat="44.08951" lon="6.35714">
        <ele>1365</ele>
        <time>2022-06-08T21:08:41Z</time>
      </trkpt>
      <trkpt lat="44.08958" lon="6.35748">
        <ele>1371</ele>
        <time>2022-06-08T21:08:47Z</time>
      </trkpt>
      <trkpt lat="44.08959" lon="6.35769">
        <ele>1375</ele>
        <time>2022-06-08T21:08:50Z</time>
      </trkpt>
      <trkpt lat="44.08952" lon="6.35871">
        <ele>1387</ele>
        <time>2022-06-08T21:09:07Z</time>
      </trkpt>
      <trkpt lat="44.08943" lon="6.3591">
        <ele>1388</ele>
        <time>2022-06-08T21:09:14Z</time>
      </trkpt>
      <trkpt lat="44.08943" lon="6.3592">
        <ele>1388</ele>
        <time>2022-06-08T21:09:16Z</time>
      </trkpt>
      <trkpt lat="44.08963" lon="6.35971">
        <ele>1397</ele>
        <time>2022-06-08T21:09:26Z</time>
      </trkpt>
      <trkpt lat="44.08975" lon="6.35992">
        <ele>1402</ele>
        <time>2022-06-08T21:09:30Z</time>
      </trkpt>
      <trkpt lat="44.08993" lon="6.36045">
        <ele>1411</ele>
        <time>2022-06-08T21:09:40Z</time>
      </trkpt>
      <trkpt lat="44.08997" lon="6.3608">
        <ele>1413</ele>
        <time>2022-06-08T21:09:46Z</time>
      </trkpt>
      <trkpt lat="44.08993" lon="6.36098">
        <ele>1413</ele>
        <time>2022-06-08T21:09:49Z</time>
      </trkpt>
      <trkpt lat="44.08995" lon="6.36137">
        <ele>1415</ele>
        <time>2022-06-08T21:09:56Z</time>
      </trkpt>
      <trkpt lat="44.08992" lon="6.36173">
        <ele>1416</ele>
        <time>2022-06-08T21:10:02Z</time>
      </trkpt>
      <trkpt lat="44.08988" lon="6.36186">
        <ele>1417</ele>
        <time>2022-06-08T21:10:04Z</time>
      </trkpt>
      <trkpt lat="44.08985" lon="6.36216">
        <ele>1419</ele>
        <time>2022-06-08T21:10:09Z</time>
      </trkpt>
      <trkpt lat="44.08989" lon="6.36233">
        <ele>1422</ele>
        <time>2022-06-08T21:10:12Z</time>
      </trkpt>
      <trkpt lat="44.09003" lon="6.36259">
        <ele>1427</ele>
        <time>2022-06-08T21:10:18Z</time>
      </trkpt>
      <trkpt lat="44.09012" lon="6.36263">
        <ele>1431</ele>
        <time>2022-06-08T21:10:20Z</time>
      </trkpt>
      <trkpt lat="44.09017" lon="6.36222">
        <ele>1430</ele>
        <time>2022-06-08T21:10:27Z</time>
      </trkpt>
      <trkpt lat="44.09024" lon="6.36212">
        <ele>1433</ele>
        <time>2022-06-08T21:10:29Z</time>
      </trkpt>
      <trkpt lat="44.09035" lon="6.3621">
        <ele>1438</ele>
        <time>2022-06-08T21:10:32Z</time>
      </trkpt>
      <trkpt lat="44.09055" lon="6.36196">
        <ele>1446</ele>
        <time>2022-06-08T21:10:37Z</time>
      </trkpt>
      <trkpt lat="44.09058" lon="6.36146">
        <ele>1443</ele>
        <time>2022-06-08T21:10:46Z</time>
      </trkpt>
      <trkpt lat="44.09078" lon="6.36104">
        <ele>1450</ele>
        <time>2022-06-08T21:10:54Z</time>
      </trkpt>
      <trkpt lat="44.09086" lon="6.3606">
        <ele>1452</ele>
        <time>2022-06-08T21:11:02Z</time>
      </trkpt>
      <trkpt lat="44.09101" lon="6.36024">
        <ele>1458</ele>
        <time>2022-06-08T21:11:09Z</time>
      </trkpt>
      <trkpt lat="44.0911" lon="6.35979">
        <ele>1461</ele>
        <time>2022-06-08T21:11:16Z</time>
      </trkpt>
      <trkpt lat="44.09119" lon="6.35954">
        <ele>1465</ele>
        <time>2022-06-08T21:11:21Z</time>
      </trkpt>
      <trkpt lat="44.09124" lon="6.35927">
        <ele>1467</ele>
        <time>2022-06-08T21:11:26Z</time>
      </trkpt>
      <trkpt lat="44.0913" lon="6.35935">
        <ele>1469</ele>
        <time>2022-06-08T21:11:28Z</time>
      </trkpt>
      <trkpt lat="44.0914" lon="6.35979">
        <ele>1474</ele>
        <time>2022-06-08T21:11:35Z</time>
      </trkpt>
      <trkpt lat="44.09144" lon="6.3605">
        <ele>1479</ele>
        <time>2022-06-08T21:11:47Z</time>
      </trkpt>
      <trkpt lat="44.09136" lon="6.36097">
        <ele>1478</ele>
        <time>2022-06-08T21:11:56Z</time>
      </trkpt>
      <trkpt lat="44.09149" lon="6.3614">
        <ele>1486</ele>
        <time>2022-06-08T21:12:03Z</time>
      </trkpt>
      <trkpt lat="44.09152" lon="6.36162">
        <ele>1489</ele>
        <time>2022-06-08T21:12:07Z</time>
      </trkpt>
      <trkpt lat="44.09149" lon="6.36187">
        <ele>1489</ele>
        <time>2022-06-08T21:12:11Z</time>
      </trkpt>
      <trkpt lat="44.09151" lon="6.36199">
        <ele>1490</ele>
        <time>2022-06-08T21:12:13Z</time>
      </trkpt>
      <trkpt lat="44.09164" lon="6.36171">
        <ele>1495</ele>
        <time>2022-06-08T21:12:19Z</time>
      </trkpt>
      <trkpt lat="44.09164" lon="6.36129">
        <ele>1493</ele>
        <time>2022-06-08T21:12:26Z</time>
      </trkpt>
      <trkpt lat="44.09161" lon="6.36124">
        <ele>1491</ele>
        <time>2022-06-08T21:12:27Z</time>
      </trkpt>
      <trkpt lat="44.09159" lon="6.36125">
        <ele>1490</ele>
        <time>2022-06-08T21:12:28Z</time>
      </trkpt>
      <trkpt lat="44.09161" lon="6.36126">
        <ele>1491</ele>
        <time>2022-06-08T21:12:28Z</time>
      </trkpt>
      <trkpt lat="44.09158" lon="6.36122">
        <ele>1490</ele>
        <time>2022-06-08T21:12:29Z</time>
      </trkpt>
      <trkpt lat="44.09157" lon="6.3611">
        <ele>1489</ele>
        <time>2022-06-08T21:12:31Z</time>
      </trkpt>
      <trkpt lat="44.09184" lon="6.36019">
        <ele>1497</ele>
        <time>2022-06-08T21:12:48Z</time>
      </trkpt>
      <trkpt lat="44.09189" lon="6.35984">
        <ele>1497</ele>
        <time>2022-06-08T21:12:54Z</time>
      </trkpt>
      <trkpt lat="44.0921" lon="6.3594">
        <ele>1505</ele>
        <time>2022-06-08T21:13:02Z</time>
      </trkpt>
      <trkpt lat="44.09212" lon="6.35895">
        <ele>1504</ele>
        <time>2022-06-08T21:13:10Z</time>
      </trkpt>
      <trkpt lat="44.09209" lon="6.35873">
        <ele>1502</ele>
        <time>2022-06-08T21:13:14Z</time>
      </trkpt>
      <trkpt lat="44.09213" lon="6.35847">
        <ele>1503</ele>
        <time>2022-06-08T21:13:18Z</time>
      </trkpt>
      <trkpt lat="44.09224" lon="6.35813">
        <ele>1506</ele>
        <time>2022-06-08T21:13:25Z</time>
      </trkpt>
      <trkpt lat="44.09247" lon="6.35757">
        <ele>1513</ele>
        <time>2022-06-08T21:13:35Z</time>
      </trkpt>
      <trkpt lat="44.09274" lon="6.35682">
        <ele>1514</ele>
        <time>2022-06-08T21:13:49Z</time>
      </trkpt>
      <trkpt lat="44.09274" lon="6.35674">
        <ele>1513</ele>
        <time>2022-06-08T21:13:51Z</time>
      </trkpt>
      <trkpt lat="44.09281" lon="6.35655">
        <ele>1512</ele>
        <time>2022-06-08T21:13:54Z</time>
      </trkpt>
      <trkpt lat="44.09323" lon="6.35576">
        <ele>1515</ele>
        <time>2022-06-08T21:14:11Z</time>
      </trkpt>
      <trkpt lat="44.09354" lon="6.35525">
        <ele>1522</ele>
        <time>2022-06-08T21:14:22Z</time>
      </trkpt>
      <trkpt lat="44.09393" lon="6.3542">
        <ele>1528</ele>
        <time>2022-06-08T21:14:42Z</time>
      </trkpt>
      <trkpt lat="44.0942" lon="6.35373">
        <ele>1544</ele>
        <time>2022-06-08T21:14:52Z</time>
      </trkpt>
      <trkpt lat="44.09426" lon="6.35367">
        <ele>1549</ele>
        <time>2022-06-08T21:14:54Z</time>
      </trkpt>
      <trkpt lat="44.0942" lon="6.35328">
        <ele>1543</ele>
        <time>2022-06-08T21:15:00Z</time>
      </trkpt>
      <trkpt lat="44.0941" lon="6.35303">
        <ele>1539</ele>
        <time>2022-06-08T21:15:05Z</time>
      </trkpt>
      <trkpt lat="44.09401" lon="6.35269">
        <ele>1537</ele>
        <time>2022-06-08T21:15:11Z</time>
      </trkpt>
      <trkpt lat="44.09403" lon="6.35268">
        <ele>1539</ele>
        <time>2022-06-08T21:15:12Z</time>
      </trkpt>
      <trkpt lat="44.09406" lon="6.35191">
        <ele>1549</ele>
        <time>2022-06-08T21:15:25Z</time>
      </trkpt>
      <trkpt lat="44.09401" lon="6.35121">
        <ele>1548</ele>
        <time>2022-06-08T21:15:36Z</time>
      </trkpt>
      <trkpt lat="44.09402" lon="6.3509">
        <ele>1548</ele>
        <time>2022-06-08T21:15:42Z</time>
      </trkpt>
      <trkpt lat="44.09403" lon="6.35085">
        <ele>1548</ele>
        <time>2022-06-08T21:15:43Z</time>
      </trkpt>
      <trkpt lat="44.09414" lon="6.35074">
        <ele>1554</ele>
        <time>2022-06-08T21:15:46Z</time>
      </trkpt>
      <trkpt lat="44.0942" lon="6.35055">
        <ele>1558</ele>
        <time>2022-06-08T21:15:49Z</time>
      </trkpt>
      <trkpt lat="44.09418" lon="6.3502">
        <ele>1558</ele>
        <time>2022-06-08T21:15:55Z</time>
      </trkpt>
      <trkpt lat="44.09421" lon="6.35002">
        <ele>1561</ele>
        <time>2022-06-08T21:15:58Z</time>
      </trkpt>
      <trkpt lat="44.09427" lon="6.3499">
        <ele>1566</ele>
        <time>2022-06-08T21:16:01Z</time>
      </trkpt>
      <trkpt lat="44.09436" lon="6.34954">
        <ele>1574</ele>
        <time>2022-06-08T21:16:07Z</time>
      </trkpt>
      <trkpt lat="44.09426" lon="6.34941">
        <ele>1569</ele>
        <time>2022-06-08T21:16:10Z</time>
      </trkpt>
      <trkpt lat="44.09424" lon="6.3493">
        <ele>1569</ele>
        <time>2022-06-08T21:16:12Z</time>
      </trkpt>
      <trkpt lat="44.09422" lon="6.34883">
        <ele>1572</ele>
        <time>2022-06-08T21:16:20Z</time>
      </trkpt>
      <trkpt lat="44.09429" lon="6.34854">
        <ele>1578</ele>
        <time>2022-06-08T21:16:25Z</time>
      </trkpt>
      <trkpt lat="44.09424" lon="6.34823">
        <ele>1577</ele>
        <time>2022-06-08T21:16:30Z</time>
      </trkpt>
      <trkpt lat="44.09425" lon="6.34811">
        <ele>1577</ele>
        <time>2022-06-08T21:16:33Z</time>
      </trkpt>
      <trkpt lat="44.09432" lon="6.34771">
        <ele>1580</ele>
        <time>2022-06-08T21:16:39Z</time>
      </trkpt>
      <trkpt lat="44.09441" lon="6.34746">
        <ele>1584</ele>
        <time>2022-06-08T21:16:44Z</time>
      </trkpt>
      <trkpt lat="44.09443" lon="6.34747">
        <ele>1585</ele>
        <time>2022-06-08T21:16:45Z</time>
      </trkpt>
      <trkpt lat="44.09444" lon="6.34735">
        <ele>1585</ele>
        <time>2022-06-08T21:16:47Z</time>
      </trkpt>
      <trkpt lat="44.09451" lon="6.34711">
        <ele>1587</ele>
        <time>2022-06-08T21:16:51Z</time>
      </trkpt>
      <trkpt lat="44.09458" lon="6.34696">
        <ele>1590</ele>
        <time>2022-06-08T21:16:54Z</time>
      </trkpt>
      <trkpt lat="44.09466" lon="6.34666">
        <ele>1593</ele>
        <time>2022-06-08T21:16:59Z</time>
      </trkpt>
      <trkpt lat="44.09472" lon="6.34653">
        <ele>1596</ele>
        <time>2022-06-08T21:17:02Z</time>
      </trkpt>
      <trkpt lat="44.09504" lon="6.34554">
        <ele>1610</ele>
        <time>2022-06-08T21:17:20Z</time>
      </trkpt>
      <trkpt lat="44.09521" lon="6.34468">
        <ele>1614</ele>
        <time>2022-06-08T21:17:35Z</time>
      </trkpt>
      <trkpt lat="44.09536" lon="6.34412">
        <ele>1617</ele>
        <time>2022-06-08T21:17:45Z</time>
      </trkpt>
      <trkpt lat="44.09544" lon="6.34388">
        <ele>1620</ele>
        <time>2022-06-08T21:17:50Z</time>
      </trkpt>
      <trkpt lat="44.09554" lon="6.34368">
        <ele>1623</ele>
        <time>2022-06-08T21:17:54Z</time>
      </trkpt>
      <trkpt lat="44.09569" lon="6.34321">
        <ele>1628</ele>
        <time>2022-06-08T21:18:02Z</time>
      </trkpt>
      <trkpt lat="44.09559" lon="6.34294">
        <ele>1630</ele>
        <time>2022-06-08T21:18:07Z</time>
      </trkpt>
      <trkpt lat="44.09536" lon="6.34275">
        <ele>1628</ele>
        <time>2022-06-08T21:18:14Z</time>
      </trkpt>
      <trkpt lat="44.09519" lon="6.34265">
        <ele>1626</ele>
        <time>2022-06-08T21:18:18Z</time>
      </trkpt>
      <trkpt lat="44.09492" lon="6.34235">
        <ele>1627</ele>
        <time>2022-06-08T21:18:26Z</time>
      </trkpt>
      <trkpt lat="44.09475" lon="6.34227">
        <ele>1626</ele>
        <time>2022-06-08T21:18:30Z</time>
      </trkpt>
      <trkpt lat="44.09388" lon="6.34168">
        <ele>1628</ele>
        <time>2022-06-08T21:18:53Z</time>
      </trkpt>
      <trkpt lat="44.09366" lon="6.34159">
        <ele>1625</ele>
        <time>2022-06-08T21:18:58Z</time>
      </trkpt>
      <trkpt lat="44.09323" lon="6.34132">
        <ele>1622</ele>
        <time>2022-06-08T21:19:09Z</time>
      </trkpt>
      <trkpt lat="44.09303" lon="6.34124">
        <ele>1622</ele>
        <time>2022-06-08T21:19:14Z</time>
      </trkpt>
      <trkpt lat="44.09261" lon="6.34112">
        <ele>1623</ele>
        <time>2022-06-08T21:19:24Z</time>
      </trkpt>
      <trkpt lat="44.0921" lon="6.34101">
        <ele>1622</ele>
        <time>2022-06-08T21:19:36Z</time>
      </trkpt>
      <trkpt lat="44.09157" lon="6.34097">
        <ele>1620</ele>
        <time>2022-06-08T21:19:48Z</time>
      </trkpt>
      <trkpt lat="44.09114" lon="6.34087">
        <ele>1626</ele>
        <time>2022-06-08T21:19:59Z</time>
      </trkpt>
      <trkpt lat="44.09094" lon="6.34086">
        <ele>1628</ele>
        <time>2022-06-08T21:20:03Z</time>
      </trkpt>
      <trkpt lat="44.09088" lon="6.34089">
        <ele>1628</ele>
        <time>2022-06-08T21:20:05Z</time>
      </trkpt>
      <trkpt lat="44.09056" lon="6.34093">
        <ele>1628</ele>
        <time>2022-06-08T21:20:12Z</time>
      </trkpt>
      <trkpt lat="44.08987" lon="6.34089">
        <ele>1632</ele>
        <time>2022-06-08T21:20:28Z</time>
      </trkpt>
      <trkpt lat="44.08868" lon="6.341">
        <ele>1628</ele>
        <time>2022-06-08T21:20:56Z</time>
      </trkpt>
      <trkpt lat="44.09155" lon="6.3373">
        <ele>1452</ele>
        <time>2022-06-08T21:22:28Z</time>
      </trkpt>
      <trkpt lat="44.08816" lon="6.34109">
        <ele>1625</ele>
        <time>2022-06-08T21:24:09Z</time>
      </trkpt>
      <trkpt lat="44.08789" lon="6.34109">
        <ele>1625</ele>
        <time>2022-06-08T21:24:15Z</time>
      </trkpt>
      <trkpt lat="44.08708" lon="6.34118">
        <ele>1621</ele>
        <time>2022-06-08T21:24:34Z</time>
      </trkpt>
      <trkpt lat="44.08687" lon="6.34123">
        <ele>1619</ele>
        <time>2022-06-08T21:24:39Z</time>
      </trkpt>
      <trkpt lat="44.08642" lon="6.34125">
        <ele>1617</ele>
        <time>2022-06-08T21:24:50Z</time>
      </trkpt>
      <trkpt lat="44.08616" lon="6.3412">
        <ele>1617</ele>
        <time>2022-06-08T21:24:56Z</time>
      </trkpt>
      <trkpt lat="44.0852" lon="6.34119">
        <ele>1615</ele>
        <time>2022-06-08T21:25:18Z</time>
      </trkpt>
      <trkpt lat="44.08516" lon="6.34117">
        <ele>1615</ele>
        <time>2022-06-08T21:25:19Z</time>
      </trkpt>
      <trkpt lat="44.08482" lon="6.34118">
        <ele>1615</ele>
        <time>2022-06-08T21:25:27Z</time>
      </trkpt>
      <trkpt lat="44.08466" lon="6.34121">
        <ele>1614</ele>
        <time>2022-06-08T21:25:31Z</time>
      </trkpt>
      <trkpt lat="44.0839" lon="6.34111">
        <ele>1618</ele>
        <time>2022-06-08T21:25:49Z</time>
      </trkpt>
      <trkpt lat="44.08263" lon="6.34099">
        <ele>1616</ele>
        <time>2022-06-08T21:26:19Z</time>
      </trkpt>
      <trkpt lat="44.08242" lon="6.3407">
        <ele>1624</ele>
        <time>2022-06-08T21:26:26Z</time>
      </trkpt>
      <trkpt lat="44.08234" lon="6.34053">
        <ele>1628</ele>
        <time>2022-06-08T21:26:29Z</time>
      </trkpt>
      <trkpt lat="44.08207" lon="6.34036">
        <ele>1633</ele>
        <time>2022-06-08T21:26:36Z</time>
      </trkpt>
      <trkpt lat="44.08201" lon="6.34025">
        <ele>1635</ele>
        <time>2022-06-08T21:26:38Z</time>
      </trkpt>
      <trkpt lat="44.0819" lon="6.34023">
        <ele>1636</ele>
        <time>2022-06-08T21:26:41Z</time>
      </trkpt>
      <trkpt lat="44.08202" lon="6.34016">
        <ele>1638</ele>
        <time>2022-06-08T21:26:44Z</time>
      </trkpt>
      <trkpt lat="44.08234" lon="6.34004">
        <ele>1640</ele>
        <time>2022-06-08T21:26:52Z</time>
      </trkpt>
      <trkpt lat="44.08241" lon="6.33999">
        <ele>1641</ele>
        <time>2022-06-08T21:26:54Z</time>
      </trkpt>
      <trkpt lat="44.08225" lon="6.33981">
        <ele>1637</ele>
        <time>2022-06-08T21:26:58Z</time>
      </trkpt>
      <trkpt lat="44.08213" lon="6.33976">
        <ele>1636</ele>
        <time>2022-06-08T21:27:01Z</time>
      </trkpt>
      <trkpt lat="44.08202" lon="6.33975">
        <ele>1637</ele>
        <time>2022-06-08T21:27:04Z</time>
      </trkpt>
      <trkpt lat="44.08184" lon="6.33965">
        <ele>1637</ele>
        <time>2022-06-08T21:27:08Z</time>
      </trkpt>
      <trkpt lat="44.0817" lon="6.33963">
        <ele>1638</ele>
        <time>2022-06-08T21:27:12Z</time>
      </trkpt>
      <trkpt lat="44.08137" lon="6.33952">
        <ele>1641</ele>
        <time>2022-06-08T21:27:20Z</time>
      </trkpt>
      <trkpt lat="44.08094" lon="6.33945">
        <ele>1648</ele>
        <time>2022-06-08T21:27:30Z</time>
      </trkpt>
      <trkpt lat="44.08092" lon="6.33941">
        <ele>1648</ele>
        <time>2022-06-08T21:27:30Z</time>
      </trkpt>
      <trkpt lat="44.08108" lon="6.33927">
        <ele>1645</ele>
        <time>2022-06-08T21:27:35Z</time>
      </trkpt>
      <trkpt lat="44.08115" lon="6.33917">
        <ele>1643</ele>
        <time>2022-06-08T21:27:37Z</time>
      </trkpt>
      <trkpt lat="44.08115" lon="6.3391">
        <ele>1639</ele>
        <time>2022-06-08T21:27:38Z</time>
      </trkpt>
      <trkpt lat="44.08117" lon="6.33912">
        <ele>1640</ele>
        <time>2022-06-08T21:27:39Z</time>
      </trkpt>
      <trkpt lat="44.08115" lon="6.33914">
        <ele>1642</ele>
        <time>2022-06-08T21:27:40Z</time>
      </trkpt>
      <trkpt lat="44.08115" lon="6.33911">
        <ele>1640</ele>
        <time>2022-06-08T21:27:40Z</time>
      </trkpt>
      <trkpt lat="44.08112" lon="6.33912">
        <ele>1641</ele>
        <time>2022-06-08T21:27:41Z</time>
      </trkpt>
      <trkpt lat="44.08064" lon="6.33881">
        <ele>1636</ele>
        <time>2022-06-08T21:27:53Z</time>
      </trkpt>
      <trkpt lat="44.08033" lon="6.33876">
        <ele>1642</ele>
        <time>2022-06-08T21:28:00Z</time>
      </trkpt>
      <trkpt lat="44.08023" lon="6.33878">
        <ele>1645</ele>
        <time>2022-06-08T21:28:03Z</time>
      </trkpt>
      <trkpt lat="44.08016" lon="6.33873">
        <ele>1645</ele>
        <time>2022-06-08T21:28:05Z</time>
      </trkpt>
      <trkpt lat="44.07991" lon="6.33864">
        <ele>1645</ele>
        <time>2022-06-08T21:28:11Z</time>
      </trkpt>
      <trkpt lat="44.07975" lon="6.33865">
        <ele>1646</ele>
        <time>2022-06-08T21:28:14Z</time>
      </trkpt>
      <trkpt lat="44.07964" lon="6.33863">
        <ele>1645</ele>
        <time>2022-06-08T21:28:17Z</time>
      </trkpt>
      <trkpt lat="44.07967" lon="6.33858">
        <ele>1643</ele>
        <time>2022-06-08T21:28:18Z</time>
      </trkpt>
      <trkpt lat="44.07927" lon="6.3386">
        <ele>1645</ele>
        <time>2022-06-08T21:28:27Z</time>
      </trkpt>
      <trkpt lat="44.07921" lon="6.33858">
        <ele>1644</ele>
        <time>2022-06-08T21:28:29Z</time>
      </trkpt>
      <trkpt lat="44.07915" lon="6.3385">
        <ele>1641</ele>
        <time>2022-06-08T21:28:31Z</time>
      </trkpt>
      <trkpt lat="44.07907" lon="6.33848">
        <ele>1640</ele>
        <time>2022-06-08T21:28:33Z</time>
      </trkpt>
      <trkpt lat="44.07903" lon="6.33844">
        <ele>1638</ele>
        <time>2022-06-08T21:28:34Z</time>
      </trkpt>
      <trkpt lat="44.079" lon="6.33849">
        <ele>1640</ele>
        <time>2022-06-08T21:28:35Z</time>
      </trkpt>
      <trkpt lat="44.0789" lon="6.33849">
        <ele>1640</ele>
        <time>2022-06-08T21:28:37Z</time>
      </trkpt>
      <trkpt lat="44.07884" lon="6.33845">
        <ele>1638</ele>
        <time>2022-06-08T21:28:39Z</time>
      </trkpt>
      <trkpt lat="44.07874" lon="6.33844">
        <ele>1637</ele>
        <time>2022-06-08T21:28:41Z</time>
      </trkpt>
      <trkpt lat="44.07881" lon="6.33842">
        <ele>1636</ele>
        <time>2022-06-08T21:28:43Z</time>
      </trkpt>
      <trkpt lat="44.07899" lon="6.33829">
        <ele>1630</ele>
        <time>2022-06-08T21:28:48Z</time>
      </trkpt>
      <trkpt lat="44.07906" lon="6.33829">
        <ele>1630</ele>
        <time>2022-06-08T21:28:49Z</time>
      </trkpt>
      <trkpt lat="44.07891" lon="6.33824">
        <ele>1626</ele>
        <time>2022-06-08T21:28:53Z</time>
      </trkpt>
      <trkpt lat="44.07883" lon="6.33827">
        <ele>1628</ele>
        <time>2022-06-08T21:28:55Z</time>
      </trkpt>
      <trkpt lat="44.07876" lon="6.33825">
        <ele>1626</ele>
        <time>2022-06-08T21:28:56Z</time>
      </trkpt>
      <trkpt lat="44.07868" lon="6.33829">
        <ele>1628</ele>
        <time>2022-06-08T21:28:58Z</time>
      </trkpt>
      <trkpt lat="44.07863" lon="6.33828">
        <ele>1627</ele>
        <time>2022-06-08T21:29:00Z</time>
      </trkpt>
      <trkpt lat="44.07871" lon="6.3382">
        <ele>1622</ele>
        <time>2022-06-08T21:29:02Z</time>
      </trkpt>
      <trkpt lat="44.07864" lon="6.33816">
        <ele>1619</ele>
        <time>2022-06-08T21:29:04Z</time>
      </trkpt>
      <trkpt lat="44.07862" lon="6.33811">
        <ele>1616</ele>
        <time>2022-06-08T21:29:05Z</time>
      </trkpt>
      <trkpt lat="44.07904" lon="6.33807">
        <ele>1614</ele>
        <time>2022-06-08T21:29:14Z</time>
      </trkpt>
      <trkpt lat="44.0792" lon="6.338">
        <ele>1608</ele>
        <time>2022-06-08T21:29:18Z</time>
      </trkpt>
      <trkpt lat="44.07944" lon="6.33785">
        <ele>1596</ele>
        <time>2022-06-08T21:29:25Z</time>
      </trkpt>
      <trkpt lat="44.07965" lon="6.33778">
        <ele>1591</ele>
        <time>2022-06-08T21:29:30Z</time>
      </trkpt>
      <trkpt lat="44.07989" lon="6.33765">
        <ele>1581</ele>
        <time>2022-06-08T21:29:36Z</time>
      </trkpt>
      <trkpt lat="44.0802" lon="6.33758">
        <ele>1570</ele>
        <time>2022-06-08T21:29:43Z</time>
      </trkpt>
      <trkpt lat="44.07979" lon="6.33732">
        <ele>1560</ele>
        <time>2022-06-08T21:29:53Z</time>
      </trkpt>
      <trkpt lat="44.07909" lon="6.33712">
        <ele>1551</ele>
        <time>2022-06-08T21:30:10Z</time>
      </trkpt>
      <trkpt lat="44.07904" lon="6.33706">
        <ele>1548</ele>
        <time>2022-06-08T21:30:12Z</time>
      </trkpt>
      <trkpt lat="44.07865" lon="6.33688">
        <ele>1542</ele>
        <time>2022-06-08T21:30:21Z</time>
      </trkpt>
      <trkpt lat="44.07853" lon="6.33678">
        <ele>1538</ele>
        <time>2022-06-08T21:30:25Z</time>
      </trkpt>
      <trkpt lat="44.07806" lon="6.33654">
        <ele>1534</ele>
        <time>2022-06-08T21:30:36Z</time>
      </trkpt>
      <trkpt lat="44.07806" lon="6.3365">
        <ele>1532</ele>
        <time>2022-06-08T21:30:37Z</time>
      </trkpt>
      <trkpt lat="44.07814" lon="6.33649">
        <ele>1530</ele>
        <time>2022-06-08T21:30:39Z</time>
      </trkpt>
      <trkpt lat="44.07815" lon="6.33652">
        <ele>1531</ele>
        <time>2022-06-08T21:30:39Z</time>
      </trkpt>
      <trkpt lat="44.07823" lon="6.33651">
        <ele>1529</ele>
        <time>2022-06-08T21:30:41Z</time>
      </trkpt>
      <trkpt lat="44.07846" lon="6.33657">
        <ele>1528</ele>
        <time>2022-06-08T21:30:47Z</time>
      </trkpt>
      <trkpt lat="44.07907" lon="6.3366">
        <ele>1524</ele>
        <time>2022-06-08T21:31:01Z</time>
      </trkpt>
      <trkpt lat="44.07954" lon="6.33653">
        <ele>1518</ele>
        <time>2022-06-08T21:31:12Z</time>
      </trkpt>
      <trkpt lat="44.07963" lon="6.33649">
        <ele>1515</ele>
        <time>2022-06-08T21:31:14Z</time>
      </trkpt>
      <trkpt lat="44.07979" lon="6.33649">
        <ele>1515</ele>
        <time>2022-06-08T21:31:18Z</time>
      </trkpt>
      <trkpt lat="44.08008" lon="6.33637">
        <ele>1506</ele>
        <time>2022-06-08T21:31:25Z</time>
      </trkpt>
      <trkpt lat="44.08039" lon="6.33637">
        <ele>1500</ele>
        <time>2022-06-08T21:31:32Z</time>
      </trkpt>
      <trkpt lat="44.0804" lon="6.33635">
        <ele>1498</ele>
        <time>2022-06-08T21:31:33Z</time>
      </trkpt>
      <trkpt lat="44.08037" lon="6.33634">
        <ele>1499</ele>
        <time>2022-06-08T21:31:33Z</time>
      </trkpt>
      <trkpt lat="44.08028" lon="6.33622">
        <ele>1495</ele>
        <time>2022-06-08T21:31:36Z</time>
      </trkpt>
      <trkpt lat="44.07999" lon="6.33605">
        <ele>1493</ele>
        <time>2022-06-08T21:31:44Z</time>
      </trkpt>
      <trkpt lat="44.07968" lon="6.33593">
        <ele>1488</ele>
        <time>2022-06-08T21:31:51Z</time>
      </trkpt>
      <trkpt lat="44.07905" lon="6.33574">
        <ele>1481</ele>
        <time>2022-06-08T21:32:06Z</time>
      </trkpt>
      <trkpt lat="44.07883" lon="6.3356">
        <ele>1476</ele>
        <time>2022-06-08T21:32:12Z</time>
      </trkpt>
      <trkpt lat="44.07885" lon="6.33558">
        <ele>1475</ele>
        <time>2022-06-08T21:32:12Z</time>
      </trkpt>
      <trkpt lat="44.0789" lon="6.33559">
        <ele>1475</ele>
        <time>2022-06-08T21:32:14Z</time>
      </trkpt>
      <trkpt lat="44.07916" lon="6.33553">
        <ele>1470</ele>
        <time>2022-06-08T21:32:20Z</time>
      </trkpt>
      <trkpt lat="44.07995" lon="6.33525">
        <ele>1454</ele>
        <time>2022-06-08T21:32:39Z</time>
      </trkpt>
      <trkpt lat="44.08025" lon="6.33512">
        <ele>1443</ele>
        <time>2022-06-08T21:32:46Z</time>
      </trkpt>
      <trkpt lat="44.08025" lon="6.33508">
        <ele>1442</ele>
        <time>2022-06-08T21:32:47Z</time>
      </trkpt>
      <trkpt lat="44.0799" lon="6.33502">
        <ele>1443</ele>
        <time>2022-06-08T21:32:55Z</time>
      </trkpt>
      <trkpt lat="44.0794" lon="6.33488">
        <ele>1439</ele>
        <time>2022-06-08T21:33:07Z</time>
      </trkpt>
      <trkpt lat="44.07897" lon="6.3347">
        <ele>1434</ele>
        <time>2022-06-08T21:33:17Z</time>
      </trkpt>
      <trkpt lat="44.07864" lon="6.33464">
        <ele>1434</ele>
        <time>2022-06-08T21:33:25Z</time>
      </trkpt>
      <trkpt lat="44.0785" lon="6.33459">
        <ele>1432</ele>
        <time>2022-06-08T21:33:29Z</time>
      </trkpt>
      <trkpt lat="44.07827" lon="6.33445">
        <ele>1427</ele>
        <time>2022-06-08T21:33:34Z</time>
      </trkpt>
      <trkpt lat="44.07791" lon="6.33429">
        <ele>1425</ele>
        <time>2022-06-08T21:33:43Z</time>
      </trkpt>
      <trkpt lat="44.0767" lon="6.33346">
        <ele>1408</ele>
        <time>2022-06-08T21:34:15Z</time>
      </trkpt>
      <trkpt lat="44.07639" lon="6.33318">
        <ele>1402</ele>
        <time>2022-06-08T21:34:23Z</time>
      </trkpt>
      <trkpt lat="44.07623" lon="6.333">
        <ele>1398</ele>
        <time>2022-06-08T21:34:28Z</time>
      </trkpt>
      <trkpt lat="44.07604" lon="6.33287">
        <ele>1396</ele>
        <time>2022-06-08T21:34:33Z</time>
      </trkpt>
      <trkpt lat="44.07591" lon="6.33269">
        <ele>1391</ele>
        <time>2022-06-08T21:34:37Z</time>
      </trkpt>
      <trkpt lat="44.07542" lon="6.33231">
        <ele>1390</ele>
        <time>2022-06-08T21:34:50Z</time>
      </trkpt>
      <trkpt lat="44.07523" lon="6.33211">
        <ele>1388</ele>
        <time>2022-06-08T21:34:56Z</time>
      </trkpt>
      <trkpt lat="44.07516" lon="6.33193">
        <ele>1383</ele>
        <time>2022-06-08T21:34:59Z</time>
      </trkpt>
      <trkpt lat="44.07499" lon="6.33172">
        <ele>1380</ele>
        <time>2022-06-08T21:35:05Z</time>
      </trkpt>
      <trkpt lat="44.07484" lon="6.33157">
        <ele>1379</ele>
        <time>2022-06-08T21:35:09Z</time>
      </trkpt>
      <trkpt lat="44.07463" lon="6.33141">
        <ele>1379</ele>
        <time>2022-06-08T21:35:15Z</time>
      </trkpt>
      <trkpt lat="44.07444" lon="6.33119">
        <ele>1377</ele>
        <time>2022-06-08T21:35:20Z</time>
      </trkpt>
      <trkpt lat="44.07403" lon="6.33046">
        <ele>1364</ele>
        <time>2022-06-08T21:35:36Z</time>
      </trkpt>
      <trkpt lat="44.07405" lon="6.33044">
        <ele>1362</ele>
        <time>2022-06-08T21:35:37Z</time>
      </trkpt>
      <trkpt lat="44.07415" lon="6.33063">
        <ele>1366</ele>
        <time>2022-06-08T21:35:41Z</time>
      </trkpt>
      <trkpt lat="44.07448" lon="6.33095">
        <ele>1365</ele>
        <time>2022-06-08T21:35:50Z</time>
      </trkpt>
      <trkpt lat="44.07462" lon="6.33098">
        <ele>1362</ele>
        <time>2022-06-08T21:35:53Z</time>
      </trkpt>
      <trkpt lat="44.07472" lon="6.33103">
        <ele>1360</ele>
        <time>2022-06-08T21:35:56Z</time>
      </trkpt>
      <trkpt lat="44.07476" lon="6.33108">
        <ele>1361</ele>
        <time>2022-06-08T21:35:57Z</time>
      </trkpt>
      <trkpt lat="44.07486" lon="6.33108">
        <ele>1358</ele>
        <time>2022-06-08T21:35:59Z</time>
      </trkpt>
      <trkpt lat="44.07495" lon="6.33103">
        <ele>1352</ele>
        <time>2022-06-08T21:36:02Z</time>
      </trkpt>
      <trkpt lat="44.07506" lon="6.33101">
        <ele>1349</ele>
        <time>2022-06-08T21:36:04Z</time>
      </trkpt>
      <trkpt lat="44.07554" lon="6.33108">
        <ele>1342</ele>
        <time>2022-06-08T21:36:15Z</time>
      </trkpt>
      <trkpt lat="44.07563" lon="6.33111">
        <ele>1341</ele>
        <time>2022-06-08T21:36:18Z</time>
      </trkpt>
      <trkpt lat="44.07569" lon="6.33119">
        <ele>1343</ele>
        <time>2022-06-08T21:36:20Z</time>
      </trkpt>
      <trkpt lat="44.07576" lon="6.33118">
        <ele>1341</ele>
        <time>2022-06-08T21:36:21Z</time>
      </trkpt>
      <trkpt lat="44.07576" lon="6.33113">
        <ele>1339</ele>
        <time>2022-06-08T21:36:22Z</time>
      </trkpt>
      <trkpt lat="44.07546" lon="6.33087">
        <ele>1336</ele>
        <time>2022-06-08T21:36:30Z</time>
      </trkpt>
      <trkpt lat="44.07529" lon="6.33077">
        <ele>1336</ele>
        <time>2022-06-08T21:36:35Z</time>
      </trkpt>
      <trkpt lat="44.07531" lon="6.3308">
        <ele>1336</ele>
        <time>2022-06-08T21:36:35Z</time>
      </trkpt>
      <trkpt lat="44.07543" lon="6.33082">
        <ele>1335</ele>
        <time>2022-06-08T21:36:38Z</time>
      </trkpt>
      <trkpt lat="44.07557" lon="6.33093">
        <ele>1336</ele>
        <time>2022-06-08T21:36:42Z</time>
      </trkpt>
      <trkpt lat="44.07603" lon="6.33147">
        <ele>1345</ele>
        <time>2022-06-08T21:36:56Z</time>
      </trkpt>
      <trkpt lat="44.07632" lon="6.33177">
        <ele>1350</ele>
        <time>2022-06-08T21:37:04Z</time>
      </trkpt>
      <trkpt lat="44.07731" lon="6.33261">
        <ele>1363</ele>
        <time>2022-06-08T21:37:31Z</time>
      </trkpt>
      <trkpt lat="44.07783" lon="6.33292">
        <ele>1370</ele>
        <time>2022-06-08T21:37:45Z</time>
      </trkpt>
      <trkpt lat="44.07804" lon="6.33309">
        <ele>1375</ele>
        <time>2022-06-08T21:37:50Z</time>
      </trkpt>
      <trkpt lat="44.07886" lon="6.33339">
        <ele>1382</ele>
        <time>2022-06-08T21:38:10Z</time>
      </trkpt>
      <trkpt lat="44.07928" lon="6.33315">
        <ele>1371</ele>
        <time>2022-06-08T21:38:21Z</time>
      </trkpt>
      <trkpt lat="44.07958" lon="6.33302">
        <ele>1364</ele>
        <time>2022-06-08T21:38:28Z</time>
      </trkpt>
      <trkpt lat="44.07975" lon="6.33301">
        <ele>1363</ele>
        <time>2022-06-08T21:38:32Z</time>
      </trkpt>
      <trkpt lat="44.07998" lon="6.33296">
        <ele>1359</ele>
        <time>2022-06-08T21:38:37Z</time>
      </trkpt>
      <trkpt lat="44.08013" lon="6.33286">
        <ele>1355</ele>
        <time>2022-06-08T21:38:41Z</time>
      </trkpt>
      <trkpt lat="44.08039" lon="6.3328">
        <ele>1352</ele>
        <time>2022-06-08T21:38:47Z</time>
      </trkpt>
      <trkpt lat="44.08091" lon="6.33239">
        <ele>1337</ele>
        <time>2022-06-08T21:39:01Z</time>
      </trkpt>
      <trkpt lat="44.08108" lon="6.33231">
        <ele>1333</ele>
        <time>2022-06-08T21:39:06Z</time>
      </trkpt>
      <trkpt lat="44.08135" lon="6.33227">
        <ele>1329</ele>
        <time>2022-06-08T21:39:12Z</time>
      </trkpt>
      <trkpt lat="44.08157" lon="6.33239">
        <ele>1328</ele>
        <time>2022-06-08T21:39:17Z</time>
      </trkpt>
      <trkpt lat="44.08163" lon="6.33236">
        <ele>1327</ele>
        <time>2022-06-08T21:39:19Z</time>
      </trkpt>
      <trkpt lat="44.08165" lon="6.33229">
        <ele>1325</ele>
        <time>2022-06-08T21:39:20Z</time>
      </trkpt>
      <trkpt lat="44.08161" lon="6.33202">
        <ele>1321</ele>
        <time>2022-06-08T21:39:25Z</time>
      </trkpt>
      <trkpt lat="44.08153" lon="6.3319">
        <ele>1319</ele>
        <time>2022-06-08T21:39:28Z</time>
      </trkpt>
      <trkpt lat="44.08146" lon="6.33156">
        <ele>1313</ele>
        <time>2022-06-08T21:39:34Z</time>
      </trkpt>
      <trkpt lat="44.08147" lon="6.33073">
        <ele>1297</ele>
        <time>2022-06-08T21:39:47Z</time>
      </trkpt>
      <trkpt lat="44.0813" lon="6.33014">
        <ele>1286</ele>
        <time>2022-06-08T21:39:58Z</time>
      </trkpt>
      <trkpt lat="44.08129" lon="6.32993">
        <ele>1282</ele>
        <time>2022-06-08T21:40:02Z</time>
      </trkpt>
      <trkpt lat="44.08116" lon="6.32918">
        <ele>1265</ele>
        <time>2022-06-08T21:40:15Z</time>
      </trkpt>
      <trkpt lat="44.08105" lon="6.32907">
        <ele>1263</ele>
        <time>2022-06-08T21:40:18Z</time>
      </trkpt>
      <trkpt lat="44.08091" lon="6.32905">
        <ele>1263</ele>
        <time>2022-06-08T21:40:21Z</time>
      </trkpt>
      <trkpt lat="44.08087" lon="6.32902">
        <ele>1263</ele>
        <time>2022-06-08T21:40:22Z</time>
      </trkpt>
      <trkpt lat="44.08082" lon="6.32904">
        <ele>1263</ele>
        <time>2022-06-08T21:40:23Z</time>
      </trkpt>
      <trkpt lat="44.0807" lon="6.32922">
        <ele>1266</ele>
        <time>2022-06-08T21:40:27Z</time>
      </trkpt>
      <trkpt lat="44.08072" lon="6.32929">
        <ele>1268</ele>
        <time>2022-06-08T21:40:29Z</time>
      </trkpt>
      <trkpt lat="44.0807" lon="6.32981">
        <ele>1277</ele>
        <time>2022-06-08T21:40:37Z</time>
      </trkpt>
      <trkpt lat="44.08061" lon="6.32976">
        <ele>1276</ele>
        <time>2022-06-08T21:40:40Z</time>
      </trkpt>
      <trkpt lat="44.08054" lon="6.32989">
        <ele>1278</ele>
        <time>2022-06-08T21:40:42Z</time>
      </trkpt>
      <trkpt lat="44.08047" lon="6.32989">
        <ele>1278</ele>
        <time>2022-06-08T21:40:44Z</time>
      </trkpt>
      <trkpt lat="44.08034" lon="6.32951">
        <ele>1270</ele>
        <time>2022-06-08T21:40:51Z</time>
      </trkpt>
      <trkpt lat="44.08032" lon="6.32925">
        <ele>1265</ele>
        <time>2022-06-08T21:40:56Z</time>
      </trkpt>
      <trkpt lat="44.0802" lon="6.32887">
        <ele>1257</ele>
        <time>2022-06-08T21:41:02Z</time>
      </trkpt>
      <trkpt lat="44.08019" lon="6.32866">
        <ele>1252</ele>
        <time>2022-06-08T21:41:06Z</time>
      </trkpt>
      <trkpt lat="44.08023" lon="6.32853">
        <ele>1250</ele>
        <time>2022-06-08T21:41:08Z</time>
      </trkpt>
      <trkpt lat="44.08046" lon="6.3282">
        <ele>1245</ele>
        <time>2022-06-08T21:41:16Z</time>
      </trkpt>
      <trkpt lat="44.08052" lon="6.32807">
        <ele>1243</ele>
        <time>2022-06-08T21:41:19Z</time>
      </trkpt>
      <trkpt lat="44.08048" lon="6.32807">
        <ele>1243</ele>
        <time>2022-06-08T21:41:20Z</time>
      </trkpt>
      <trkpt lat="44.08058" lon="6.32797">
        <ele>1242</ele>
        <time>2022-06-08T21:41:22Z</time>
      </trkpt>
      <trkpt lat="44.0808" lon="6.32751">
        <ele>1235</ele>
        <time>2022-06-08T21:41:32Z</time>
      </trkpt>
      <trkpt lat="44.08084" lon="6.32739">
        <ele>1234</ele>
        <time>2022-06-08T21:41:34Z</time>
      </trkpt>
      <trkpt lat="44.0808" lon="6.32732">
        <ele>1233</ele>
        <time>2022-06-08T21:41:35Z</time>
      </trkpt>
      <trkpt lat="44.08085" lon="6.32723">
        <ele>1233</ele>
        <time>2022-06-08T21:41:37Z</time>
      </trkpt>
      <trkpt lat="44.08088" lon="6.32723">
        <ele>1232</ele>
        <time>2022-06-08T21:41:38Z</time>
      </trkpt>
      <trkpt lat="44.08098" lon="6.32715">
        <ele>1230</ele>
        <time>2022-06-08T21:41:41Z</time>
      </trkpt>
      <trkpt lat="44.08102" lon="6.3272">
        <ele>1230</ele>
        <time>2022-06-08T21:41:42Z</time>
      </trkpt>
      <trkpt lat="44.08097" lon="6.32718">
        <ele>1231</ele>
        <time>2022-06-08T21:41:43Z</time>
      </trkpt>
      <trkpt lat="44.08092" lon="6.32723">
        <ele>1232</ele>
        <time>2022-06-08T21:41:45Z</time>
      </trkpt>
      <trkpt lat="44.08087" lon="6.32724">
        <ele>1232</ele>
        <time>2022-06-08T21:41:46Z</time>
      </trkpt>
      <trkpt lat="44.08085" lon="6.32722">
        <ele>1232</ele>
        <time>2022-06-08T21:41:46Z</time>
      </trkpt>
      <trkpt lat="44.0809" lon="6.32711">
        <ele>1231</ele>
        <time>2022-06-08T21:41:49Z</time>
      </trkpt>
      <trkpt lat="44.08088" lon="6.32706">
        <ele>1231</ele>
        <time>2022-06-08T21:41:50Z</time>
      </trkpt>
      <trkpt lat="44.08094" lon="6.32695">
        <ele>1229</ele>
        <time>2022-06-08T21:41:52Z</time>
      </trkpt>
      <trkpt lat="44.08099" lon="6.32694">
        <ele>1228</ele>
        <time>2022-06-08T21:41:53Z</time>
      </trkpt>
      <trkpt lat="44.08094" lon="6.32687">
        <ele>1228</ele>
        <time>2022-06-08T21:41:55Z</time>
      </trkpt>
      <trkpt lat="44.08135" lon="6.32643">
        <ele>1218</ele>
        <time>2022-06-08T21:42:07Z</time>
      </trkpt>
      <trkpt lat="44.08156" lon="6.32612">
        <ele>1212</ele>
        <time>2022-06-08T21:42:14Z</time>
      </trkpt>
      <trkpt lat="44.08161" lon="6.32602">
        <ele>1210</ele>
        <time>2022-06-08T21:42:16Z</time>
      </trkpt>
      <trkpt lat="44.08174" lon="6.32557">
        <ele>1205</ele>
        <time>2022-06-08T21:42:24Z</time>
      </trkpt>
      <trkpt lat="44.08184" lon="6.32538">
        <ele>1202</ele>
        <time>2022-06-08T21:42:28Z</time>
      </trkpt>
      <trkpt lat="44.08187" lon="6.32524">
        <ele>1201</ele>
        <time>2022-06-08T21:42:31Z</time>
      </trkpt>
      <trkpt lat="44.082" lon="6.32508">
        <ele>1196</ele>
        <time>2022-06-08T21:42:35Z</time>
      </trkpt>
      <trkpt lat="44.08205" lon="6.32496">
        <ele>1194</ele>
        <time>2022-06-08T21:42:37Z</time>
      </trkpt>
      <trkpt lat="44.08205" lon="6.32493">
        <ele>1194</ele>
        <time>2022-06-08T21:42:37Z</time>
      </trkpt>
      <trkpt lat="44.08202" lon="6.32494">
        <ele>1195</ele>
        <time>2022-06-08T21:42:38Z</time>
      </trkpt>
      <trkpt lat="44.08202" lon="6.32496">
        <ele>1195</ele>
        <time>2022-06-08T21:42:39Z</time>
      </trkpt>
      <trkpt lat="44.08222" lon="6.32478">
        <ele>1187</ele>
        <time>2022-06-08T21:42:44Z</time>
      </trkpt>
      <trkpt lat="44.08234" lon="6.32457">
        <ele>1181</ele>
        <time>2022-06-08T21:42:49Z</time>
      </trkpt>
      <trkpt lat="44.08236" lon="6.32436">
        <ele>1179</ele>
        <time>2022-06-08T21:42:52Z</time>
      </trkpt>
      <trkpt lat="44.08239" lon="6.32431">
        <ele>1177</ele>
        <time>2022-06-08T21:42:53Z</time>
      </trkpt>
      <trkpt lat="44.08245" lon="6.3243">
        <ele>1175</ele>
        <time>2022-06-08T21:42:55Z</time>
      </trkpt>
      <trkpt lat="44.08257" lon="6.32416">
        <ele>1169</ele>
        <time>2022-06-08T21:42:58Z</time>
      </trkpt>
      <trkpt lat="44.08264" lon="6.32389">
        <ele>1164</ele>
        <time>2022-06-08T21:43:03Z</time>
      </trkpt>
      <trkpt lat="44.08263" lon="6.32378">
        <ele>1163</ele>
        <time>2022-06-08T21:43:05Z</time>
      </trkpt>
      <trkpt lat="44.08267" lon="6.32367">
        <ele>1160</ele>
        <time>2022-06-08T21:43:07Z</time>
      </trkpt>
      <trkpt lat="44.08267" lon="6.3236">
        <ele>1159</ele>
        <time>2022-06-08T21:43:08Z</time>
      </trkpt>
      <trkpt lat="44.08283" lon="6.32339">
        <ele>1152</ele>
        <time>2022-06-08T21:43:13Z</time>
      </trkpt>
      <trkpt lat="44.08294" lon="6.32309">
        <ele>1144</ele>
        <time>2022-06-08T21:43:19Z</time>
      </trkpt>
      <trkpt lat="44.08295" lon="6.32277">
        <ele>1140</ele>
        <time>2022-06-08T21:43:24Z</time>
      </trkpt>
      <trkpt lat="44.0829" lon="6.32245">
        <ele>1137</ele>
        <time>2022-06-08T21:43:30Z</time>
      </trkpt>
      <trkpt lat="44.08285" lon="6.3224">
        <ele>1137</ele>
        <time>2022-06-08T21:43:31Z</time>
      </trkpt>
      <trkpt lat="44.0827" lon="6.32237">
        <ele>1140</ele>
        <time>2022-06-08T21:43:35Z</time>
      </trkpt>
      <trkpt lat="44.08254" lon="6.32211">
        <ele>1140</ele>
        <time>2022-06-08T21:43:41Z</time>
      </trkpt>
      <trkpt lat="44.08255" lon="6.32206">
        <ele>1139</ele>
        <time>2022-06-08T21:43:41Z</time>
      </trkpt>
      <trkpt lat="44.08261" lon="6.322">
        <ele>1137</ele>
        <time>2022-06-08T21:43:43Z</time>
      </trkpt>
      <trkpt lat="44.0825" lon="6.32178">
        <ele>1137</ele>
        <time>2022-06-08T21:43:48Z</time>
      </trkpt>
      <trkpt lat="44.08255" lon="6.32166">
        <ele>1133</ele>
        <time>2022-06-08T21:43:50Z</time>
      </trkpt>
      <trkpt lat="44.08248" lon="6.32165">
        <ele>1135</ele>
        <time>2022-06-08T21:43:52Z</time>
      </trkpt>
      <trkpt lat="44.08237" lon="6.3215">
        <ele>1137</ele>
        <time>2022-06-08T21:43:55Z</time>
      </trkpt>
      <trkpt lat="44.08218" lon="6.32136">
        <ele>1142</ele>
        <time>2022-06-08T21:44:00Z</time>
      </trkpt>
      <trkpt lat="44.08215" lon="6.32122">
        <ele>1142</ele>
        <time>2022-06-08T21:44:03Z</time>
      </trkpt>
      <trkpt lat="44.08216" lon="6.32108">
        <ele>1140</ele>
        <time>2022-06-08T21:44:05Z</time>
      </trkpt>
      <trkpt lat="44.08213" lon="6.32096">
        <ele>1139</ele>
        <time>2022-06-08T21:44:07Z</time>
      </trkpt>
      <trkpt lat="44.08208" lon="6.3209">
        <ele>1140</ele>
        <time>2022-06-08T21:44:09Z</time>
      </trkpt>
      <trkpt lat="44.08195" lon="6.32095">
        <ele>1145</ele>
        <time>2022-06-08T21:44:12Z</time>
      </trkpt>
      <trkpt lat="44.08181" lon="6.3211">
        <ele>1151</ele>
        <time>2022-06-08T21:44:16Z</time>
      </trkpt>
      <trkpt lat="44.08173" lon="6.32105">
        <ele>1153</ele>
        <time>2022-06-08T21:44:18Z</time>
      </trkpt>
      <trkpt lat="44.08165" lon="6.32093">
        <ele>1154</ele>
        <time>2022-06-08T21:44:21Z</time>
      </trkpt>
      <trkpt lat="44.08146" lon="6.32087">
        <ele>1155</ele>
        <time>2022-06-08T21:44:25Z</time>
      </trkpt>
      <trkpt lat="44.08145" lon="6.32089">
        <ele>1155</ele>
        <time>2022-06-08T21:44:26Z</time>
      </trkpt>
      <trkpt lat="44.08141" lon="6.32083">
        <ele>1155</ele>
        <time>2022-06-08T21:44:27Z</time>
      </trkpt>
      <trkpt lat="44.08112" lon="6.32071">
        <ele>1155</ele>
        <time>2022-06-08T21:44:34Z</time>
      </trkpt>
      <trkpt lat="44.08093" lon="6.32058">
        <ele>1154</ele>
        <time>2022-06-08T21:44:39Z</time>
      </trkpt>
      <trkpt lat="44.08062" lon="6.32056">
        <ele>1151</ele>
        <time>2022-06-08T21:44:46Z</time>
      </trkpt>
      <trkpt lat="44.08052" lon="6.32051">
        <ele>1148</ele>
        <time>2022-06-08T21:44:49Z</time>
      </trkpt>
      <trkpt lat="44.08042" lon="6.32058">
        <ele>1148</ele>
        <time>2022-06-08T21:44:51Z</time>
      </trkpt>
      <trkpt lat="44.08026" lon="6.32075">
        <ele>1148</ele>
        <time>2022-06-08T21:44:56Z</time>
      </trkpt>
      <trkpt lat="44.08007" lon="6.32074">
        <ele>1145</ele>
        <time>2022-06-08T21:45:01Z</time>
      </trkpt>
      <trkpt lat="44.07984" lon="6.32085">
        <ele>1143</ele>
        <time>2022-06-08T21:45:06Z</time>
      </trkpt>
      <trkpt lat="44.07979" lon="6.32097">
        <ele>1144</ele>
        <time>2022-06-08T21:45:09Z</time>
      </trkpt>
      <trkpt lat="44.07969" lon="6.32108">
        <ele>1144</ele>
        <time>2022-06-08T21:45:12Z</time>
      </trkpt>
      <trkpt lat="44.07955" lon="6.32115">
        <ele>1142</ele>
        <time>2022-06-08T21:45:15Z</time>
      </trkpt>
      <trkpt lat="44.07949" lon="6.32122">
        <ele>1142</ele>
        <time>2022-06-08T21:45:17Z</time>
      </trkpt>
      <trkpt lat="44.07929" lon="6.32136">
        <ele>1140</ele>
        <time>2022-06-08T21:45:22Z</time>
      </trkpt>
      <trkpt lat="44.07894" lon="6.32141">
        <ele>1139</ele>
        <time>2022-06-08T21:45:30Z</time>
      </trkpt>
      <trkpt lat="44.07887" lon="6.32144">
        <ele>1139</ele>
        <time>2022-06-08T21:45:32Z</time>
      </trkpt>
      <trkpt lat="44.07871" lon="6.32166">
        <ele>1141</ele>
        <time>2022-06-08T21:45:37Z</time>
      </trkpt>
      <trkpt lat="44.07859" lon="6.3216">
        <ele>1141</ele>
        <time>2022-06-08T21:45:40Z</time>
      </trkpt>
      <trkpt lat="44.07852" lon="6.32153">
        <ele>1140</ele>
        <time>2022-06-08T21:45:42Z</time>
      </trkpt>
      <trkpt lat="44.0782" lon="6.32142">
        <ele>1139</ele>
        <time>2022-06-08T21:45:50Z</time>
      </trkpt>
      <trkpt lat="44.07811" lon="6.32142">
        <ele>1139</ele>
        <time>2022-06-08T21:45:52Z</time>
      </trkpt>
      <trkpt lat="44.07798" lon="6.32148">
        <ele>1141</ele>
        <time>2022-06-08T21:45:55Z</time>
      </trkpt>
      <trkpt lat="44.07786" lon="6.32147">
        <ele>1141</ele>
        <time>2022-06-08T21:45:58Z</time>
      </trkpt>
      <trkpt lat="44.07767" lon="6.32138">
        <ele>1141</ele>
        <time>2022-06-08T21:46:03Z</time>
      </trkpt>
      <trkpt lat="44.07738" lon="6.32129">
        <ele>1141</ele>
        <time>2022-06-08T21:46:10Z</time>
      </trkpt>
      <trkpt lat="44.07726" lon="6.32119">
        <ele>1141</ele>
        <time>2022-06-08T21:46:13Z</time>
      </trkpt>
      <trkpt lat="44.0769" lon="6.32102">
        <ele>1140</ele>
        <time>2022-06-08T21:46:22Z</time>
      </trkpt>
      <trkpt lat="44.07679" lon="6.32093">
        <ele>1139</ele>
        <time>2022-06-08T21:46:25Z</time>
      </trkpt>
      <trkpt lat="44.07661" lon="6.32073">
        <ele>1138</ele>
        <time>2022-06-08T21:46:30Z</time>
      </trkpt>
      <trkpt lat="44.07656" lon="6.32048">
        <ele>1136</ele>
        <time>2022-06-08T21:46:35Z</time>
      </trkpt>
      <trkpt lat="44.07646" lon="6.32022">
        <ele>1134</ele>
        <time>2022-06-08T21:46:40Z</time>
      </trkpt>
      <trkpt lat="44.07637" lon="6.32009">
        <ele>1133</ele>
        <time>2022-06-08T21:46:43Z</time>
      </trkpt>
      <trkpt lat="44.07614" lon="6.31991">
        <ele>1133</ele>
        <time>2022-06-08T21:46:49Z</time>
      </trkpt>
      <trkpt lat="44.07558" lon="6.31955">
        <ele>1130</ele>
        <time>2022-06-08T21:47:03Z</time>
      </trkpt>
      <trkpt lat="44.07538" lon="6.31949">
        <ele>1128</ele>
        <time>2022-06-08T21:47:08Z</time>
      </trkpt>
      <trkpt lat="44.07524" lon="6.31964">
        <ele>1128</ele>
        <time>2022-06-08T21:47:12Z</time>
      </trkpt>
      <trkpt lat="44.07507" lon="6.31968">
        <ele>1127</ele>
        <time>2022-06-08T21:47:16Z</time>
      </trkpt>
      <trkpt lat="44.07487" lon="6.3198">
        <ele>1128</ele>
        <time>2022-06-08T21:47:21Z</time>
      </trkpt>
      <trkpt lat="44.07483" lon="6.3198">
        <ele>1128</ele>
        <time>2022-06-08T21:47:22Z</time>
      </trkpt>
      <trkpt lat="44.07476" lon="6.31975">
        <ele>1128</ele>
        <time>2022-06-08T21:47:24Z</time>
      </trkpt>
      <trkpt lat="44.07448" lon="6.31941">
        <ele>1122</ele>
        <time>2022-06-08T21:47:33Z</time>
      </trkpt>
      <trkpt lat="44.07431" lon="6.31926">
        <ele>1120</ele>
        <time>2022-06-08T21:47:37Z</time>
      </trkpt>
      <trkpt lat="44.07422" lon="6.31923">
        <ele>1119</ele>
        <time>2022-06-08T21:47:39Z</time>
      </trkpt>
      <trkpt lat="44.07394" lon="6.31925">
        <ele>1122</ele>
        <time>2022-06-08T21:47:46Z</time>
      </trkpt>
      <trkpt lat="44.0738" lon="6.31921">
        <ele>1123</ele>
        <time>2022-06-08T21:47:49Z</time>
      </trkpt>
      <trkpt lat="44.07344" lon="6.31908">
        <ele>1126</ele>
        <time>2022-06-08T21:47:58Z</time>
      </trkpt>
      <trkpt lat="44.07326" lon="6.3189">
        <ele>1126</ele>
        <time>2022-06-08T21:48:03Z</time>
      </trkpt>
      <trkpt lat="44.07316" lon="6.31861">
        <ele>1124</ele>
        <time>2022-06-08T21:48:09Z</time>
      </trkpt>
      <trkpt lat="44.0732" lon="6.31845">
        <ele>1122</ele>
        <time>2022-06-08T21:48:11Z</time>
      </trkpt>
      <trkpt lat="44.07339" lon="6.31807">
        <ele>1115</ele>
        <time>2022-06-08T21:48:19Z</time>
      </trkpt>
      <trkpt lat="44.07339" lon="6.31775">
        <ele>1110</ele>
        <time>2022-06-08T21:48:25Z</time>
      </trkpt>
      <trkpt lat="44.07324" lon="6.31745">
        <ele>1108</ele>
        <time>2022-06-08T21:48:31Z</time>
      </trkpt>
      <trkpt lat="44.07289" lon="6.31693">
        <ele>1105</ele>
        <time>2022-06-08T21:48:43Z</time>
      </trkpt>
      <trkpt lat="44.07256" lon="6.31629">
        <ele>1103</ele>
        <time>2022-06-08T21:48:56Z</time>
      </trkpt>
      <trkpt lat="44.07254" lon="6.31613">
        <ele>1101</ele>
        <time>2022-06-08T21:48:59Z</time>
      </trkpt>
      <trkpt lat="44.07277" lon="6.3157">
        <ele>1093</ele>
        <time>2022-06-08T21:49:08Z</time>
      </trkpt>
      <trkpt lat="44.0729" lon="6.31509">
        <ele>1084</ele>
        <time>2022-06-08T21:49:18Z</time>
      </trkpt>
      <trkpt lat="44.07298" lon="6.31486">
        <ele>1081</ele>
        <time>2022-06-08T21:49:23Z</time>
      </trkpt>
      <trkpt lat="44.07313" lon="6.31378">
        <ele>1075</ele>
        <time>2022-06-08T21:49:41Z</time>
      </trkpt>
      <trkpt lat="44.07321" lon="6.31364">
        <ele>1074</ele>
        <time>2022-06-08T21:49:44Z</time>
      </trkpt>
      <trkpt lat="44.07324" lon="6.31343">
        <ele>1073</ele>
        <time>2022-06-08T21:49:48Z</time>
      </trkpt>
      <trkpt lat="44.07324" lon="6.31321">
        <ele>1072</ele>
        <time>2022-06-08T21:49:51Z</time>
      </trkpt>
      <trkpt lat="44.07321" lon="6.31303">
        <ele>1069</ele>
        <time>2022-06-08T21:49:54Z</time>
      </trkpt>
      <trkpt lat="44.07346" lon="6.31264">
        <ele>1062</ele>
        <time>2022-06-08T21:50:03Z</time>
      </trkpt>
      <trkpt lat="44.07349" lon="6.31254">
        <ele>1060</ele>
        <time>2022-06-08T21:50:05Z</time>
      </trkpt>
      <trkpt lat="44.07354" lon="6.31254">
        <ele>1058</ele>
        <time>2022-06-08T21:50:06Z</time>
      </trkpt>
      <trkpt lat="44.07366" lon="6.31248">
        <ele>1052</ele>
        <time>2022-06-08T21:50:09Z</time>
      </trkpt>
      <trkpt lat="44.07373" lon="6.31238">
        <ele>1048</ele>
        <time>2022-06-08T21:50:11Z</time>
      </trkpt>
      <trkpt lat="44.07372" lon="6.31229">
        <ele>1046</ele>
        <time>2022-06-08T21:50:13Z</time>
      </trkpt>
      <trkpt lat="44.07376" lon="6.31217">
        <ele>1043</ele>
        <time>2022-06-08T21:50:15Z</time>
      </trkpt>
      <trkpt lat="44.07375" lon="6.31164">
        <ele>1033</ele>
        <time>2022-06-08T21:50:24Z</time>
      </trkpt>
      <trkpt lat="44.07367" lon="6.31143">
        <ele>1029</ele>
        <time>2022-06-08T21:50:28Z</time>
      </trkpt>
      <trkpt lat="44.07365" lon="6.31125">
        <ele>1024</ele>
        <time>2022-06-08T21:50:31Z</time>
      </trkpt>
      <trkpt lat="44.07349" lon="6.31119">
        <ele>1025</ele>
        <time>2022-06-08T21:50:35Z</time>
      </trkpt>
      <trkpt lat="44.07345" lon="6.31107">
        <ele>1022</ele>
        <time>2022-06-08T21:50:37Z</time>
      </trkpt>
      <trkpt lat="44.07329" lon="6.31104">
        <ele>1023</ele>
        <time>2022-06-08T21:50:41Z</time>
      </trkpt>
      <trkpt lat="44.07315" lon="6.31088">
        <ele>1017</ele>
        <time>2022-06-08T21:50:45Z</time>
      </trkpt>
      <trkpt lat="44.07308" lon="6.31061">
        <ele>1009</ele>
        <time>2022-06-08T21:50:50Z</time>
      </trkpt>
      <trkpt lat="44.07308" lon="6.31047">
        <ele>1005</ele>
        <time>2022-06-08T21:50:52Z</time>
      </trkpt>
      <trkpt lat="44.07303" lon="6.31033">
        <ele>1001</ele>
        <time>2022-06-08T21:50:55Z</time>
      </trkpt>
      <trkpt lat="44.07291" lon="6.31013">
        <ele>994</ele>
        <time>2022-06-08T21:50:59Z</time>
      </trkpt>
      <trkpt lat="44.07288" lon="6.30999">
        <ele>991</ele>
        <time>2022-06-08T21:51:02Z</time>
      </trkpt>
      <trkpt lat="44.07287" lon="6.30987">
        <ele>988</ele>
        <time>2022-06-08T21:51:04Z</time>
      </trkpt>
      <trkpt lat="44.0729" lon="6.30972">
        <ele>986</ele>
        <time>2022-06-08T21:51:07Z</time>
      </trkpt>
      <trkpt lat="44.07288" lon="6.30961">
        <ele>983</ele>
        <time>2022-06-08T21:51:08Z</time>
      </trkpt>
      <trkpt lat="44.07292" lon="6.30957">
        <ele>983</ele>
        <time>2022-06-08T21:51:10Z</time>
      </trkpt>
      <trkpt lat="44.07297" lon="6.30941">
        <ele>980</ele>
        <time>2022-06-08T21:51:13Z</time>
      </trkpt>
      <trkpt lat="44.07304" lon="6.3093">
        <ele>978</ele>
        <time>2022-06-08T21:51:15Z</time>
      </trkpt>
      <trkpt lat="44.07305" lon="6.30911">
        <ele>975</ele>
        <time>2022-06-08T21:51:18Z</time>
      </trkpt>
      <trkpt lat="44.07323" lon="6.30899">
        <ele>974</ele>
        <time>2022-06-08T21:51:23Z</time>
      </trkpt>
      <trkpt lat="44.07331" lon="6.30887">
        <ele>973</ele>
        <time>2022-06-08T21:51:26Z</time>
      </trkpt>
      <trkpt lat="44.0734" lon="6.30886">
        <ele>972</ele>
        <time>2022-06-08T21:51:28Z</time>
      </trkpt>
      <trkpt lat="44.07346" lon="6.3088">
        <ele>970</ele>
        <time>2022-06-08T21:51:29Z</time>
      </trkpt>
      <trkpt lat="44.07336" lon="6.30871">
        <ele>970</ele>
        <time>2022-06-08T21:51:32Z</time>
      </trkpt>
      <trkpt lat="44.07328" lon="6.30868">
        <ele>970</ele>
        <time>2022-06-08T21:51:34Z</time>
      </trkpt>
      <trkpt lat="44.07301" lon="6.30875">
        <ele>969</ele>
        <time>2022-06-08T21:51:41Z</time>
      </trkpt>
      <trkpt lat="44.07264" lon="6.30865">
        <ele>965</ele>
        <time>2022-06-08T21:51:49Z</time>
      </trkpt>
      <trkpt lat="44.07201" lon="6.30812">
        <ele>957</ele>
        <time>2022-06-08T21:52:07Z</time>
      </trkpt>
      <trkpt lat="44.07187" lon="6.30795">
        <ele>956</ele>
        <time>2022-06-08T21:52:11Z</time>
      </trkpt>
      <trkpt lat="44.0718" lon="6.3079">
        <ele>955</ele>
        <time>2022-06-08T21:52:13Z</time>
      </trkpt>
      <trkpt lat="44.07166" lon="6.30784">
        <ele>955</ele>
        <time>2022-06-08T21:52:16Z</time>
      </trkpt>
      <trkpt lat="44.07136" lon="6.30781">
        <ele>958</ele>
        <time>2022-06-08T21:52:23Z</time>
      </trkpt>
      <trkpt lat="44.07106" lon="6.30758">
        <ele>958</ele>
        <time>2022-06-08T21:52:31Z</time>
      </trkpt>
      <trkpt lat="44.07108" lon="6.3076">
        <ele>958</ele>
        <time>2022-06-08T21:52:32Z</time>
      </trkpt>
      <trkpt lat="44.07089" lon="6.30756">
        <ele>959</ele>
        <time>2022-06-08T21:52:36Z</time>
      </trkpt>
      <trkpt lat="44.0706" lon="6.3076">
        <ele>963</ele>
        <time>2022-06-08T21:52:43Z</time>
      </trkpt>
      <trkpt lat="44.0703" lon="6.30756">
        <ele>966</ele>
        <time>2022-06-08T21:52:50Z</time>
      </trkpt>
      <trkpt lat="44.07004" lon="6.30732">
        <ele>966</ele>
        <time>2022-06-08T21:52:57Z</time>
      </trkpt>
      <trkpt lat="44.06937" lon="6.30646">
        <ele>971</ele>
        <time>2022-06-08T21:53:19Z</time>
      </trkpt>
      <trkpt lat="44.06924" lon="6.30609">
        <ele>969</ele>
        <time>2022-06-08T21:53:26Z</time>
      </trkpt>
      <trkpt lat="44.06891" lon="6.30578">
        <ele>967</ele>
        <time>2022-06-08T21:53:35Z</time>
      </trkpt>
      <trkpt lat="44.06847" lon="6.30578">
        <ele>968</ele>
        <time>2022-06-08T21:53:45Z</time>
      </trkpt>
      <trkpt lat="44.06818" lon="6.30556">
        <ele>961</ele>
        <time>2022-06-08T21:53:53Z</time>
      </trkpt>
      <trkpt lat="44.06812" lon="6.30554">
        <ele>960</ele>
        <time>2022-06-08T21:53:54Z</time>
      </trkpt>
      <trkpt lat="44.06799" lon="6.30558">
        <ele>959</ele>
        <time>2022-06-08T21:53:57Z</time>
      </trkpt>
      <trkpt lat="44.06747" lon="6.30616">
        <ele>962</ele>
        <time>2022-06-08T21:54:13Z</time>
      </trkpt>
      <trkpt lat="44.06716" lon="6.30638">
        <ele>966</ele>
        <time>2022-06-08T21:54:21Z</time>
      </trkpt>
      <trkpt lat="44.06708" lon="6.30657">
        <ele>968</ele>
        <time>2022-06-08T21:54:25Z</time>
      </trkpt>
      <trkpt lat="44.06698" lon="6.30671">
        <ele>970</ele>
        <time>2022-06-08T21:54:28Z</time>
      </trkpt>
      <trkpt lat="44.0669" lon="6.30671">
        <ele>970</ele>
        <time>2022-06-08T21:54:30Z</time>
      </trkpt>
      <trkpt lat="44.06683" lon="6.30661">
        <ele>969</ele>
        <time>2022-06-08T21:54:32Z</time>
      </trkpt>
      <trkpt lat="44.06674" lon="6.30632">
        <ele>966</ele>
        <time>2022-06-08T21:54:38Z</time>
      </trkpt>
      <trkpt lat="44.06674" lon="6.30604">
        <ele>964</ele>
        <time>2022-06-08T21:54:42Z</time>
      </trkpt>
      <trkpt lat="44.06684" lon="6.30555">
        <ele>960</ele>
        <time>2022-06-08T21:54:51Z</time>
      </trkpt>
      <trkpt lat="44.06702" lon="6.30518">
        <ele>955</ele>
        <time>2022-06-08T21:54:58Z</time>
      </trkpt>
      <trkpt lat="44.06687" lon="6.30497">
        <ele>956</ele>
        <time>2022-06-08T21:55:03Z</time>
      </trkpt>
      <trkpt lat="44.06654" lon="6.30498">
        <ele>960</ele>
        <time>2022-06-08T21:55:11Z</time>
      </trkpt>
      <trkpt lat="44.06645" lon="6.30502">
        <ele>961</ele>
        <time>2022-06-08T21:55:13Z</time>
      </trkpt>
      <trkpt lat="44.06627" lon="6.30486">
        <ele>961</ele>
        <time>2022-06-08T21:55:18Z</time>
      </trkpt>
      <trkpt lat="44.06604" lon="6.30459">
        <ele>961</ele>
        <time>2022-06-08T21:55:25Z</time>
      </trkpt>
      <trkpt lat="44.06592" lon="6.30453">
        <ele>961</ele>
        <time>2022-06-08T21:55:28Z</time>
      </trkpt>
      <trkpt lat="44.0659" lon="6.30447">
        <ele>961</ele>
        <time>2022-06-08T21:55:29Z</time>
      </trkpt>
      <trkpt lat="44.06594" lon="6.30427">
        <ele>961</ele>
        <time>2022-06-08T21:55:33Z</time>
      </trkpt>
      <trkpt lat="44.06624" lon="6.30382">
        <ele>957</ele>
        <time>2022-06-08T21:55:43Z</time>
      </trkpt>
      <trkpt lat="44.06648" lon="6.30359">
        <ele>955</ele>
        <time>2022-06-08T21:55:50Z</time>
      </trkpt>
      <trkpt lat="44.06659" lon="6.30343">
        <ele>954</ele>
        <time>2022-06-08T21:55:54Z</time>
      </trkpt>
      <trkpt lat="44.06662" lon="6.30347">
        <ele>954</ele>
        <time>2022-06-08T21:55:55Z</time>
      </trkpt>
      <trkpt lat="44.06662" lon="6.30342">
        <ele>954</ele>
        <time>2022-06-08T21:55:55Z</time>
      </trkpt>
      <trkpt lat="44.06659" lon="6.30339">
        <ele>954</ele>
        <time>2022-06-08T21:55:56Z</time>
      </trkpt>
      <trkpt lat="44.06654" lon="6.30303">
        <ele>957</ele>
        <time>2022-06-08T21:56:02Z</time>
      </trkpt>
      <trkpt lat="44.06645" lon="6.303">
        <ele>958</ele>
        <time>2022-06-08T21:56:05Z</time>
      </trkpt>
      <trkpt lat="44.06629" lon="6.30309">
        <ele>958</ele>
        <time>2022-06-08T21:56:09Z</time>
      </trkpt>
      <trkpt lat="44.06596" lon="6.30314">
        <ele>960</ele>
        <time>2022-06-08T21:56:16Z</time>
      </trkpt>
      <trkpt lat="44.06584" lon="6.30306">
        <ele>961</ele>
        <time>2022-06-08T21:56:19Z</time>
      </trkpt>
      <trkpt lat="44.06583" lon="6.30302">
        <ele>961</ele>
        <time>2022-06-08T21:56:20Z</time>
      </trkpt>
      <trkpt lat="44.06586" lon="6.30294">
        <ele>962</ele>
        <time>2022-06-08T21:56:22Z</time>
      </trkpt>
      <trkpt lat="44.06573" lon="6.3027">
        <ele>962</ele>
        <time>2022-06-08T21:56:27Z</time>
      </trkpt>
      <trkpt lat="44.06568" lon="6.30267">
        <ele>962</ele>
        <time>2022-06-08T21:56:28Z</time>
      </trkpt>
      <trkpt lat="44.06562" lon="6.30284">
        <ele>960</ele>
        <time>2022-06-08T21:56:31Z</time>
      </trkpt>
      <trkpt lat="44.06554" lon="6.30296">
        <ele>959</ele>
        <time>2022-06-08T21:56:34Z</time>
      </trkpt>
      <trkpt lat="44.06549" lon="6.30297">
        <ele>959</ele>
        <time>2022-06-08T21:56:35Z</time>
      </trkpt>
      <trkpt lat="44.06539" lon="6.30288">
        <ele>958</ele>
        <time>2022-06-08T21:56:38Z</time>
      </trkpt>
      <trkpt lat="44.06529" lon="6.30304">
        <ele>957</ele>
        <time>2022-06-08T21:56:41Z</time>
      </trkpt>
      <trkpt lat="44.06511" lon="6.30313">
        <ele>956</ele>
        <time>2022-06-08T21:56:46Z</time>
      </trkpt>
      <trkpt lat="44.06504" lon="6.30311">
        <ele>955</ele>
        <time>2022-06-08T21:56:48Z</time>
      </trkpt>
      <trkpt lat="44.06488" lon="6.30316">
        <ele>953</ele>
        <time>2022-06-08T21:56:51Z</time>
      </trkpt>
      <trkpt lat="44.06479" lon="6.30291">
        <ele>952</ele>
        <time>2022-06-08T21:56:56Z</time>
      </trkpt>
      <trkpt lat="44.06454" lon="6.30277">
        <ele>948</ele>
        <time>2022-06-08T21:57:02Z</time>
      </trkpt>
      <trkpt lat="44.06451" lon="6.30242">
        <ele>947</ele>
        <time>2022-06-08T21:57:08Z</time>
      </trkpt>
      <trkpt lat="44.0647" lon="6.30211">
        <ele>948</ele>
        <time>2022-06-08T21:57:15Z</time>
      </trkpt>
      <trkpt lat="44.06483" lon="6.30165">
        <ele>948</ele>
        <time>2022-06-08T21:57:23Z</time>
      </trkpt>
      <trkpt lat="44.06487" lon="6.30159">
        <ele>948</ele>
        <time>2022-06-08T21:57:25Z</time>
      </trkpt>
      <trkpt lat="44.06487" lon="6.30142">
        <ele>947</ele>
        <time>2022-06-08T21:57:28Z</time>
      </trkpt>
      <trkpt lat="44.06496" lon="6.30116">
        <ele>948</ele>
        <time>2022-06-08T21:57:33Z</time>
      </trkpt>
      <trkpt lat="44.06492" lon="6.301">
        <ele>946</ele>
        <time>2022-06-08T21:57:35Z</time>
      </trkpt>
      <trkpt lat="44.06496" lon="6.30079">
        <ele>946</ele>
        <time>2022-06-08T21:57:39Z</time>
      </trkpt>
      <trkpt lat="44.06491" lon="6.30068">
        <ele>945</ele>
        <time>2022-06-08T21:57:41Z</time>
      </trkpt>
      <trkpt lat="44.06495" lon="6.30059">
        <ele>945</ele>
        <time>2022-06-08T21:57:43Z</time>
      </trkpt>
      <trkpt lat="44.06491" lon="6.30051">
        <ele>944</ele>
        <time>2022-06-08T21:57:45Z</time>
      </trkpt>
      <trkpt lat="44.06487" lon="6.30029">
        <ele>942</ele>
        <time>2022-06-08T21:57:48Z</time>
      </trkpt>
      <trkpt lat="44.06487" lon="6.30015">
        <ele>942</ele>
        <time>2022-06-08T21:57:51Z</time>
      </trkpt>
      <trkpt lat="44.06477" lon="6.29988">
        <ele>938</ele>
        <time>2022-06-08T21:57:56Z</time>
      </trkpt>
      <trkpt lat="44.06478" lon="6.29955">
        <ele>937</ele>
        <time>2022-06-08T21:58:01Z</time>
      </trkpt>
      <trkpt lat="44.0648" lon="6.29955">
        <ele>938</ele>
        <time>2022-06-08T21:58:02Z</time>
      </trkpt>
      <trkpt lat="44.06491" lon="6.29938">
        <ele>941</ele>
        <time>2022-06-08T21:58:06Z</time>
      </trkpt>
      <trkpt lat="44.06489" lon="6.29925">
        <ele>940</ele>
        <time>2022-06-08T21:58:08Z</time>
      </trkpt>
      <trkpt lat="44.06491" lon="6.29917">
        <ele>940</ele>
        <time>2022-06-08T21:58:09Z</time>
      </trkpt>
      <trkpt lat="44.06485" lon="6.29889">
        <ele>935</ele>
        <time>2022-06-08T21:58:14Z</time>
      </trkpt>
      <trkpt lat="44.06492" lon="6.29857">
        <ele>933</ele>
        <time>2022-06-08T21:58:20Z</time>
      </trkpt>
      <trkpt lat="44.065" lon="6.29846">
        <ele>935</ele>
        <time>2022-06-08T21:58:23Z</time>
      </trkpt>
      <trkpt lat="44.06509" lon="6.29816">
        <ele>933</ele>
        <time>2022-06-08T21:58:28Z</time>
      </trkpt>
      <trkpt lat="44.06512" lon="6.29792">
        <ele>929</ele>
        <time>2022-06-08T21:58:32Z</time>
      </trkpt>
      <trkpt lat="44.06523" lon="6.29767">
        <ele>928</ele>
        <time>2022-06-08T21:58:37Z</time>
      </trkpt>
      <trkpt lat="44.06529" lon="6.29767">
        <ele>930</ele>
        <time>2022-06-08T21:58:38Z</time>
      </trkpt>
      <trkpt lat="44.06536" lon="6.29759">
        <ele>931</ele>
        <time>2022-06-08T21:58:41Z</time>
      </trkpt>
      <trkpt lat="44.06546" lon="6.29713">
        <ele>925</ele>
        <time>2022-06-08T21:58:49Z</time>
      </trkpt>
      <trkpt lat="44.06559" lon="6.29682">
        <ele>923</ele>
        <time>2022-06-08T21:58:55Z</time>
      </trkpt>
      <trkpt lat="44.06566" lon="6.29653">
        <ele>920</ele>
        <time>2022-06-08T21:59:00Z</time>
      </trkpt>
      <trkpt lat="44.06572" lon="6.29644">
        <ele>921</ele>
        <time>2022-06-08T21:59:02Z</time>
      </trkpt>
      <trkpt lat="44.06599" lon="6.29577">
        <ele>918</ele>
        <time>2022-06-08T21:59:15Z</time>
      </trkpt>
      <trkpt lat="44.06619" lon="6.29545">
        <ele>919</ele>
        <time>2022-06-08T21:59:22Z</time>
      </trkpt>
      <trkpt lat="44.06622" lon="6.29525">
        <ele>917</ele>
        <time>2022-06-08T21:59:25Z</time>
      </trkpt>
      <trkpt lat="44.06642" lon="6.29451">
        <ele>921</ele>
        <time>2022-06-08T21:59:38Z</time>
      </trkpt>
      <trkpt lat="44.06652" lon="6.29436">
        <ele>922</ele>
        <time>2022-06-08T21:59:42Z</time>
      </trkpt>
      <trkpt lat="44.06648" lon="6.29432">
        <ele>922</ele>
        <time>2022-06-08T21:59:43Z</time>
      </trkpt>
      <trkpt lat="44.06648" lon="6.29436">
        <ele>922</ele>
        <time>2022-06-08T21:59:44Z</time>
      </trkpt>
      <trkpt lat="44.06652" lon="6.29438">
        <ele>922</ele>
        <time>2022-06-08T21:59:45Z</time>
      </trkpt>
      <trkpt lat="44.06647" lon="6.29434">
        <ele>922</ele>
        <time>2022-06-08T21:59:46Z</time>
      </trkpt>
      <trkpt lat="44.06652" lon="6.29437">
        <ele>922</ele>
        <time>2022-06-08T21:59:47Z</time>
      </trkpt>
      <trkpt lat="44.06648" lon="6.29429">
        <ele>922</ele>
        <time>2022-06-08T21:59:49Z</time>
      </trkpt>
      <trkpt lat="44.06648" lon="6.29432">
        <ele>922</ele>
        <time>2022-06-08T21:59:49Z</time>
      </trkpt>
      <trkpt lat="44.06653" lon="6.29436">
        <ele>922</ele>
        <time>2022-06-08T21:59:51Z</time>
      </trkpt>
      <trkpt lat="44.06649" lon="6.29435">
        <ele>922</ele>
        <time>2022-06-08T21:59:52Z</time>
      </trkpt>
      <trkpt lat="44.06652" lon="6.29435">
        <ele>922</ele>
        <time>2022-06-08T21:59:52Z</time>
      </trkpt>
      <trkpt lat="44.06649" lon="6.29433">
        <ele>922</ele>
        <time>2022-06-08T21:59:53Z</time>
      </trkpt>
      <trkpt lat="44.06651" lon="6.29438">
        <ele>922</ele>
        <time>2022-06-08T21:59:54Z</time>
      </trkpt>
      <trkpt lat="44.06664" lon="6.29412">
        <ele>924</ele>
        <time>2022-06-08T22:00:00Z</time>
      </trkpt>
      <trkpt lat="44.06675" lon="6.29404">
        <ele>925</ele>
        <time>2022-06-08T22:00:02Z</time>
      </trkpt>
      <trkpt lat="44.06699" lon="6.29378">
        <ele>928</ele>
        <time>2022-06-08T22:00:10Z</time>
      </trkpt>
      <trkpt lat="44.06707" lon="6.29358">
        <ele>931</ele>
        <time>2022-06-08T22:00:13Z</time>
      </trkpt>
      <trkpt lat="44.06704" lon="6.29343">
        <ele>934</ele>
        <time>2022-06-08T22:00:16Z</time>
      </trkpt>
      <trkpt lat="44.06698" lon="6.29329">
        <ele>937</ele>
        <time>2022-06-08T22:00:19Z</time>
      </trkpt>
      <trkpt lat="44.06723" lon="6.29291">
        <ele>941</ele>
        <time>2022-06-08T22:00:27Z</time>
      </trkpt>
      <trkpt lat="44.06758" lon="6.29262">
        <ele>944</ele>
        <time>2022-06-08T22:00:37Z</time>
      </trkpt>
      <trkpt lat="44.06797" lon="6.29253">
        <ele>944</ele>
        <time>2022-06-08T22:00:46Z</time>
      </trkpt>
      <trkpt lat="44.06827" lon="6.29252">
        <ele>944</ele>
        <time>2022-06-08T22:00:53Z</time>
      </trkpt>
      <trkpt lat="44.06863" lon="6.29223">
        <ele>951</ele>
        <time>2022-06-08T22:01:03Z</time>
      </trkpt>
      <trkpt lat="44.06908" lon="6.29206">
        <ele>953</ele>
        <time>2022-06-08T22:01:14Z</time>
      </trkpt>
      <trkpt lat="44.06916" lon="6.29201">
        <ele>953</ele>
        <time>2022-06-08T22:01:16Z</time>
      </trkpt>
      <trkpt lat="44.06925" lon="6.29191">
        <ele>956</ele>
        <time>2022-06-08T22:01:18Z</time>
      </trkpt>
      <trkpt lat="44.06931" lon="6.29181">
        <ele>958</ele>
        <time>2022-06-08T22:01:21Z</time>
      </trkpt>
      <trkpt lat="44.06937" lon="6.29163">
        <ele>962</ele>
        <time>2022-06-08T22:01:24Z</time>
      </trkpt>
      <trkpt lat="44.06949" lon="6.29164">
        <ele>961</ele>
        <time>2022-06-08T22:01:27Z</time>
      </trkpt>
      <trkpt lat="44.06975" lon="6.29172">
        <ele>959</ele>
        <time>2022-06-08T22:01:33Z</time>
      </trkpt>
      <trkpt lat="44.06986" lon="6.29166">
        <ele>960</ele>
        <time>2022-06-08T22:01:36Z</time>
      </trkpt>
      <trkpt lat="44.07012" lon="6.29145">
        <ele>961</ele>
        <time>2022-06-08T22:01:43Z</time>
      </trkpt>
      <trkpt lat="44.07022" lon="6.29129">
        <ele>963</ele>
        <time>2022-06-08T22:01:46Z</time>
      </trkpt>
      <trkpt lat="44.07051" lon="6.29105">
        <ele>961</ele>
        <time>2022-06-08T22:01:54Z</time>
      </trkpt>
      <trkpt lat="44.07056" lon="6.29093">
        <ele>961</ele>
        <time>2022-06-08T22:01:57Z</time>
      </trkpt>
      <trkpt lat="44.07055" lon="6.29064">
        <ele>967</ele>
        <time>2022-06-08T22:02:01Z</time>
      </trkpt>
      <trkpt lat="44.07052" lon="6.29049">
        <ele>972</ele>
        <time>2022-06-08T22:02:04Z</time>
      </trkpt>
      <trkpt lat="44.07055" lon="6.29032">
        <ele>975</ele>
        <time>2022-06-08T22:02:07Z</time>
      </trkpt>
      <trkpt lat="44.07082" lon="6.28997">
        <ele>976</ele>
        <time>2022-06-08T22:02:16Z</time>
      </trkpt>
      <trkpt lat="44.07095" lon="6.28957">
        <ele>982</ele>
        <time>2022-06-08T22:02:23Z</time>
      </trkpt>
      <trkpt lat="44.07111" lon="6.28926">
        <ele>986</ele>
        <time>2022-06-08T22:02:29Z</time>
      </trkpt>
      <trkpt lat="44.07118" lon="6.28917">
        <ele>986</ele>
        <time>2022-06-08T22:02:32Z</time>
      </trkpt>
      <trkpt lat="44.0712" lon="6.28918">
        <ele>986</ele>
        <time>2022-06-08T22:02:32Z</time>
      </trkpt>
      <trkpt lat="44.07134" lon="6.28909">
        <ele>985</ele>
        <time>2022-06-08T22:02:36Z</time>
      </trkpt>
      <trkpt lat="44.07143" lon="6.28899">
        <ele>986</ele>
        <time>2022-06-08T22:02:38Z</time>
      </trkpt>
      <trkpt lat="44.07155" lon="6.28897">
        <ele>984</ele>
        <time>2022-06-08T22:02:41Z</time>
      </trkpt>
      <trkpt lat="44.07198" lon="6.28913">
        <ele>975</ele>
        <time>2022-06-08T22:02:52Z</time>
      </trkpt>
      <trkpt lat="44.07235" lon="6.28901">
        <ele>975</ele>
        <time>2022-06-08T22:03:00Z</time>
      </trkpt>
      <trkpt lat="44.07263" lon="6.28871">
        <ele>978</ele>
        <time>2022-06-08T22:03:09Z</time>
      </trkpt>
      <trkpt lat="44.07359" lon="6.28844">
        <ele>974</ele>
        <time>2022-06-08T22:03:32Z</time>
      </trkpt>
      <trkpt lat="44.07376" lon="6.28837">
        <ele>974</ele>
        <time>2022-06-08T22:03:36Z</time>
      </trkpt>
      <trkpt lat="44.0739" lon="6.28833">
        <ele>974</ele>
        <time>2022-06-08T22:03:39Z</time>
      </trkpt>
      <trkpt lat="44.07436" lon="6.28844">
        <ele>967</ele>
        <time>2022-06-08T22:03:50Z</time>
      </trkpt>
      <trkpt lat="44.0748" lon="6.28817">
        <ele>967</ele>
        <time>2022-06-08T22:04:01Z</time>
      </trkpt>
      <trkpt lat="44.07506" lon="6.28757">
        <ele>974</ele>
        <time>2022-06-08T22:04:13Z</time>
      </trkpt>
      <trkpt lat="44.0756" lon="6.28708">
        <ele>973</ele>
        <time>2022-06-08T22:04:28Z</time>
      </trkpt>
      <trkpt lat="44.07577" lon="6.28704">
        <ele>971</ele>
        <time>2022-06-08T22:04:32Z</time>
      </trkpt>
      <trkpt lat="44.07613" lon="6.28685">
        <ele>969</ele>
        <time>2022-06-08T22:04:41Z</time>
      </trkpt>
      <trkpt lat="44.0763" lon="6.28679">
        <ele>968</ele>
        <time>2022-06-08T22:04:45Z</time>
      </trkpt>
      <trkpt lat="44.0765" lon="6.28681">
        <ele>965</ele>
        <time>2022-06-08T22:04:50Z</time>
      </trkpt>
      <trkpt lat="44.07662" lon="6.28692">
        <ele>961</ele>
        <time>2022-06-08T22:04:53Z</time>
      </trkpt>
      <trkpt lat="44.07685" lon="6.28697">
        <ele>956</ele>
        <time>2022-06-08T22:04:59Z</time>
      </trkpt>
      <trkpt lat="44.07716" lon="6.287">
        <ele>950</ele>
        <time>2022-06-08T22:05:06Z</time>
      </trkpt>
      <trkpt lat="44.07741" lon="6.28706">
        <ele>944</ele>
        <time>2022-06-08T22:05:12Z</time>
      </trkpt>
      <trkpt lat="44.07752" lon="6.28704">
        <ele>943</ele>
        <time>2022-06-08T22:05:14Z</time>
      </trkpt>
      <trkpt lat="44.0778" lon="6.28641">
        <ele>946</ele>
        <time>2022-06-08T22:05:27Z</time>
      </trkpt>
      <trkpt lat="44.07793" lon="6.28627">
        <ele>944</ele>
        <time>2022-06-08T22:05:31Z</time>
      </trkpt>
      <trkpt lat="44.07818" lon="6.28568">
        <ele>943</ele>
        <time>2022-06-08T22:05:42Z</time>
      </trkpt>
      <trkpt lat="44.07835" lon="6.28548">
        <ele>942</ele>
        <time>2022-06-08T22:05:47Z</time>
      </trkpt>
      <trkpt lat="44.0787" lon="6.28525">
        <ele>941</ele>
        <time>2022-06-08T22:05:56Z</time>
      </trkpt>
      <trkpt lat="44.07876" lon="6.28518">
        <ele>942</ele>
        <time>2022-06-08T22:05:58Z</time>
      </trkpt>
      <trkpt lat="44.07927" lon="6.28501">
        <ele>938</ele>
        <time>2022-06-08T22:06:10Z</time>
      </trkpt>
      <trkpt lat="44.07938" lon="6.28494">
        <ele>936</ele>
        <time>2022-06-08T22:06:13Z</time>
      </trkpt>
      <trkpt lat="44.07949" lon="6.28483">
        <ele>935</ele>
        <time>2022-06-08T22:06:16Z</time>
      </trkpt>
      <trkpt lat="44.07958" lon="6.2846">
        <ele>935</ele>
        <time>2022-06-08T22:06:21Z</time>
      </trkpt>
      <trkpt lat="44.07964" lon="6.28434">
        <ele>937</ele>
        <time>2022-06-08T22:06:25Z</time>
      </trkpt>
      <trkpt lat="44.07966" lon="6.28406">
        <ele>938</ele>
        <time>2022-06-08T22:06:30Z</time>
      </trkpt>
      <trkpt lat="44.07973" lon="6.28382">
        <ele>935</ele>
        <time>2022-06-08T22:06:34Z</time>
      </trkpt>
      <trkpt lat="44.07978" lon="6.28346">
        <ele>933</ele>
        <time>2022-06-08T22:06:41Z</time>
      </trkpt>
      <trkpt lat="44.07999" lon="6.28308">
        <ele>922</ele>
        <time>2022-06-08T22:06:49Z</time>
      </trkpt>
      <trkpt lat="44.07999" lon="6.283">
        <ele>920</ele>
        <time>2022-06-08T22:06:50Z</time>
      </trkpt>
      <trkpt lat="44.07986" lon="6.28298">
        <ele>920</ele>
        <time>2022-06-08T22:06:53Z</time>
      </trkpt>
      <trkpt lat="44.08001" lon="6.28283">
        <ele>915</ele>
        <time>2022-06-08T22:06:57Z</time>
      </trkpt>
      <trkpt lat="44.08007" lon="6.28271">
        <ele>912</ele>
        <time>2022-06-08T22:07:00Z</time>
      </trkpt>
      <trkpt lat="44.08023" lon="6.28265">
        <ele>910</ele>
        <time>2022-06-08T22:07:04Z</time>
      </trkpt>
      <trkpt lat="44.08013" lon="6.28246">
        <ele>905</ele>
        <time>2022-06-08T22:07:08Z</time>
      </trkpt>
      <trkpt lat="44.08009" lon="6.28246">
        <ele>905</ele>
        <time>2022-06-08T22:07:09Z</time>
      </trkpt>
      <trkpt lat="44.08009" lon="6.28226">
        <ele>899</ele>
        <time>2022-06-08T22:07:12Z</time>
      </trkpt>
      <trkpt lat="44.0804" lon="6.28221">
        <ele>898</ele>
        <time>2022-06-08T22:07:19Z</time>
      </trkpt>
      <trkpt lat="44.08038" lon="6.28213">
        <ele>896</ele>
        <time>2022-06-08T22:07:21Z</time>
      </trkpt>
      <trkpt lat="44.08045" lon="6.28197">
        <ele>891</ele>
        <time>2022-06-08T22:07:24Z</time>
      </trkpt>
      <trkpt lat="44.0805" lon="6.28191">
        <ele>889</ele>
        <time>2022-06-08T22:07:25Z</time>
      </trkpt>
      <trkpt lat="44.08063" lon="6.28185">
        <ele>888</ele>
        <time>2022-06-08T22:07:29Z</time>
      </trkpt>
      <trkpt lat="44.08077" lon="6.28174">
        <ele>885</ele>
        <time>2022-06-08T22:07:32Z</time>
      </trkpt>
      <trkpt lat="44.08086" lon="6.28138">
        <ele>878</ele>
        <time>2022-06-08T22:07:39Z</time>
      </trkpt>
      <trkpt lat="44.08106" lon="6.28138">
        <ele>875</ele>
        <time>2022-06-08T22:07:43Z</time>
      </trkpt>
      <trkpt lat="44.08108" lon="6.2813">
        <ele>873</ele>
        <time>2022-06-08T22:07:45Z</time>
      </trkpt>
      <trkpt lat="44.0812" lon="6.28115">
        <ele>870</ele>
        <time>2022-06-08T22:07:49Z</time>
      </trkpt>
      <trkpt lat="44.0813" lon="6.28086">
        <ele>867</ele>
        <time>2022-06-08T22:07:54Z</time>
      </trkpt>
      <trkpt lat="44.08123" lon="6.28058">
        <ele>866</ele>
        <time>2022-06-08T22:07:59Z</time>
      </trkpt>
      <trkpt lat="44.08104" lon="6.28013">
        <ele>861</ele>
        <time>2022-06-08T22:08:08Z</time>
      </trkpt>
      <trkpt lat="44.08092" lon="6.27993">
        <ele>858</ele>
        <time>2022-06-08T22:08:12Z</time>
      </trkpt>
      <trkpt lat="44.08069" lon="6.27977">
        <ele>856</ele>
        <time>2022-06-08T22:08:18Z</time>
      </trkpt>
      <trkpt lat="44.0806" lon="6.27974">
        <ele>855</ele>
        <time>2022-06-08T22:08:20Z</time>
      </trkpt>
      <trkpt lat="44.08054" lon="6.27962">
        <ele>854</ele>
        <time>2022-06-08T22:08:23Z</time>
      </trkpt>
      <trkpt lat="44.08043" lon="6.27954">
        <ele>852</ele>
        <time>2022-06-08T22:08:26Z</time>
      </trkpt>
      <trkpt lat="44.0803" lon="6.27957">
        <ele>851</ele>
        <time>2022-06-08T22:08:29Z</time>
      </trkpt>
      <trkpt lat="44.08015" lon="6.27945">
        <ele>846</ele>
        <time>2022-06-08T22:08:33Z</time>
      </trkpt>
      <trkpt lat="44.08004" lon="6.27932">
        <ele>842</ele>
        <time>2022-06-08T22:08:36Z</time>
      </trkpt>
      <trkpt lat="44.08" lon="6.27913">
        <ele>836</ele>
        <time>2022-06-08T22:08:39Z</time>
      </trkpt>
      <trkpt lat="44.07986" lon="6.27874">
        <ele>827</ele>
        <time>2022-06-08T22:08:47Z</time>
      </trkpt>
      <trkpt lat="44.07981" lon="6.27842">
        <ele>818</ele>
        <time>2022-06-08T22:08:52Z</time>
      </trkpt>
      <trkpt lat="44.07983" lon="6.27819">
        <ele>811</ele>
        <time>2022-06-08T22:08:56Z</time>
      </trkpt>
      <trkpt lat="44.07971" lon="6.2779">
        <ele>801</ele>
        <time>2022-06-08T22:09:02Z</time>
      </trkpt>
      <trkpt lat="44.07976" lon="6.27782">
        <ele>798</ele>
        <time>2022-06-08T22:09:03Z</time>
      </trkpt>
      <trkpt lat="44.07974" lon="6.27767">
        <ele>793</ele>
        <time>2022-06-08T22:09:06Z</time>
      </trkpt>
      <trkpt lat="44.0797" lon="6.27749">
        <ele>786</ele>
        <time>2022-06-08T22:09:09Z</time>
      </trkpt>
      <trkpt lat="44.07962" lon="6.27729">
        <ele>782</ele>
        <time>2022-06-08T22:09:13Z</time>
      </trkpt>
      <trkpt lat="44.07953" lon="6.27682">
        <ele>773</ele>
        <time>2022-06-08T22:09:21Z</time>
      </trkpt>
      <trkpt lat="44.07957" lon="6.27652">
        <ele>770</ele>
        <time>2022-06-08T22:09:26Z</time>
      </trkpt>
      <trkpt lat="44.07976" lon="6.27596">
        <ele>766</ele>
        <time>2022-06-08T22:09:37Z</time>
      </trkpt>
      <trkpt lat="44.07977" lon="6.27587">
        <ele>765</ele>
        <time>2022-06-08T22:09:38Z</time>
      </trkpt>
      <trkpt lat="44.07973" lon="6.27511">
        <ele>767</ele>
        <time>2022-06-08T22:09:51Z</time>
      </trkpt>
      <trkpt lat="44.07973" lon="6.27456">
        <ele>768</ele>
        <time>2022-06-08T22:10:00Z</time>
      </trkpt>
      <trkpt lat="44.07976" lon="6.27417">
        <ele>769</ele>
        <time>2022-06-08T22:10:07Z</time>
      </trkpt>
      <trkpt lat="44.07971" lon="6.27385">
        <ele>766</ele>
        <time>2022-06-08T22:10:12Z</time>
      </trkpt>
      <trkpt lat="44.07976" lon="6.2735">
        <ele>764</ele>
        <time>2022-06-08T22:10:18Z</time>
      </trkpt>
      <trkpt lat="44.07972" lon="6.27322">
        <ele>761</ele>
        <time>2022-06-08T22:10:23Z</time>
      </trkpt>
      <trkpt lat="44.07973" lon="6.27288">
        <ele>758</ele>
        <time>2022-06-08T22:10:29Z</time>
      </trkpt>
      <trkpt lat="44.0797" lon="6.27267">
        <ele>755</ele>
        <time>2022-06-08T22:10:32Z</time>
      </trkpt>
      <trkpt lat="44.07974" lon="6.27246">
        <ele>754</ele>
        <time>2022-06-08T22:10:36Z</time>
      </trkpt>
      <trkpt lat="44.07983" lon="6.27243">
        <ele>754</ele>
        <time>2022-06-08T22:10:38Z</time>
      </trkpt>
      <trkpt lat="44.07995" lon="6.27232">
        <ele>754</ele>
        <time>2022-06-08T22:10:42Z</time>
      </trkpt>
      <trkpt lat="44.07994" lon="6.27205">
        <ele>754</ele>
        <time>2022-06-08T22:10:46Z</time>
      </trkpt>
      <trkpt lat="44.07986" lon="6.27193">
        <ele>755</ele>
        <time>2022-06-08T22:10:49Z</time>
      </trkpt>
      <trkpt lat="44.07973" lon="6.27188">
        <ele>755</ele>
        <time>2022-06-08T22:10:52Z</time>
      </trkpt>
      <trkpt lat="44.07963" lon="6.2718">
        <ele>756</ele>
        <time>2022-06-08T22:10:55Z</time>
      </trkpt>
      <trkpt lat="44.07959" lon="6.27179">
        <ele>756</ele>
        <time>2022-06-08T22:10:56Z</time>
      </trkpt>
      <trkpt lat="44.07948" lon="6.27183">
        <ele>757</ele>
        <time>2022-06-08T22:10:58Z</time>
      </trkpt>
      <trkpt lat="44.07953" lon="6.27178">
        <ele>757</ele>
        <time>2022-06-08T22:11:00Z</time>
      </trkpt>
      <trkpt lat="44.07948" lon="6.2717">
        <ele>758</ele>
        <time>2022-06-08T22:11:01Z</time>
      </trkpt>
      <trkpt lat="44.07948" lon="6.27172">
        <ele>757</ele>
        <time>2022-06-08T22:11:02Z</time>
      </trkpt>
      <trkpt lat="44.07954" lon="6.27173">
        <ele>757</ele>
        <time>2022-06-08T22:11:03Z</time>
      </trkpt>
      <trkpt lat="44.07951" lon="6.27181">
        <ele>757</ele>
        <time>2022-06-08T22:11:05Z</time>
      </trkpt>
      <trkpt lat="44.07939" lon="6.27192">
        <ele>757</ele>
        <time>2022-06-08T22:11:08Z</time>
      </trkpt>
      <trkpt lat="44.07916" lon="6.27204">
        <ele>757</ele>
        <time>2022-06-08T22:11:14Z</time>
      </trkpt>
      <trkpt lat="44.07907" lon="6.27204">
        <ele>756</ele>
        <time>2022-06-08T22:11:16Z</time>
      </trkpt>
      <trkpt lat="44.07886" lon="6.2721">
        <ele>753</ele>
        <time>2022-06-08T22:11:21Z</time>
      </trkpt>
      <trkpt lat="44.07858" lon="6.27232">
        <ele>750</ele>
        <time>2022-06-08T22:11:28Z</time>
      </trkpt>
      <trkpt lat="44.07836" lon="6.27243">
        <ele>747</ele>
        <time>2022-06-08T22:11:34Z</time>
      </trkpt>
      <trkpt lat="44.07822" lon="6.27232">
        <ele>748</ele>
        <time>2022-06-08T22:11:38Z</time>
      </trkpt>
      <trkpt lat="44.07771" lon="6.2722">
        <ele>748</ele>
        <time>2022-06-08T22:11:50Z</time>
      </trkpt>
      <trkpt lat="44.0772" lon="6.27215">
        <ele>751</ele>
        <time>2022-06-08T22:12:02Z</time>
      </trkpt>
      <trkpt lat="44.07675" lon="6.27197">
        <ele>759</ele>
        <time>2022-06-08T22:12:13Z</time>
      </trkpt>
      <trkpt lat="44.07681" lon="6.27184">
        <ele>758</ele>
        <time>2022-06-08T22:12:15Z</time>
      </trkpt>
      <trkpt lat="44.07676" lon="6.27192">
        <ele>758</ele>
        <time>2022-06-08T22:12:17Z</time>
      </trkpt>
      <trkpt lat="44.07679" lon="6.27197">
        <ele>758</ele>
        <time>2022-06-08T22:12:18Z</time>
      </trkpt>
      <trkpt lat="44.07697" lon="6.27206">
        <ele>754</ele>
        <time>2022-06-08T22:12:23Z</time>
      </trkpt>
      <trkpt lat="44.07715" lon="6.27212">
        <ele>752</ele>
        <time>2022-06-08T22:12:27Z</time>
      </trkpt>
      <trkpt lat="44.07769" lon="6.27221">
        <ele>748</ele>
        <time>2022-06-08T22:12:40Z</time>
      </trkpt>
      <trkpt lat="44.07819" lon="6.27233">
        <ele>748</ele>
        <time>2022-06-08T22:12:51Z</time>
      </trkpt>
      <trkpt lat="44.07838" lon="6.27242">
        <ele>748</ele>
        <time>2022-06-08T22:12:56Z</time>
      </trkpt>
      <trkpt lat="44.0784" lon="6.27241">
        <ele>748</ele>
        <time>2022-06-08T22:12:57Z</time>
      </trkpt>
      <trkpt lat="44.07835" lon="6.2723">
        <ele>748</ele>
        <time>2022-06-08T22:12:59Z</time>
      </trkpt>
      <trkpt lat="44.07831" lon="6.2723">
        <ele>748</ele>
        <time>2022-06-08T22:13:00Z</time>
      </trkpt>
      <trkpt lat="44.07806" lon="6.27217">
        <ele>748</ele>
        <time>2022-06-08T22:13:06Z</time>
      </trkpt>
      <trkpt lat="44.0775" lon="6.27174">
        <ele>739</ele>
        <time>2022-06-08T22:13:21Z</time>
      </trkpt>
      <trkpt lat="44.07719" lon="6.27142">
        <ele>740</ele>
        <time>2022-06-08T22:13:30Z</time>
      </trkpt>
      <trkpt lat="44.07701" lon="6.27119">
        <ele>740</ele>
        <time>2022-06-08T22:13:36Z</time>
      </trkpt>
      <trkpt lat="44.07688" lon="6.27088">
        <ele>737</ele>
        <time>2022-06-08T22:13:42Z</time>
      </trkpt>
      <trkpt lat="44.07686" lon="6.27078">
        <ele>735</ele>
        <time>2022-06-08T22:13:43Z</time>
      </trkpt>
      <trkpt lat="44.07679" lon="6.26989">
        <ele>713</ele>
        <time>2022-06-08T22:13:58Z</time>
      </trkpt>
      <trkpt lat="44.07652" lon="6.26928">
        <ele>698</ele>
        <time>2022-06-08T22:14:10Z</time>
      </trkpt>
      <trkpt lat="44.07647" lon="6.26923">
        <ele>697</ele>
        <time>2022-06-08T22:14:12Z</time>
      </trkpt>
      <trkpt lat="44.07642" lon="6.2692">
        <ele>696</ele>
        <time>2022-06-08T22:14:13Z</time>
      </trkpt>
      <trkpt lat="44.07632" lon="6.26922">
        <ele>696</ele>
        <time>2022-06-08T22:14:15Z</time>
      </trkpt>
      <trkpt lat="44.07616" lon="6.26942">
        <ele>699</ele>
        <time>2022-06-08T22:14:20Z</time>
      </trkpt>
      <trkpt lat="44.07613" lon="6.26945">
        <ele>700</ele>
        <time>2022-06-08T22:14:21Z</time>
      </trkpt>
      <trkpt lat="44.07611" lon="6.26944">
        <ele>699</ele>
        <time>2022-06-08T22:14:22Z</time>
      </trkpt>
      <trkpt lat="44.07614" lon="6.26911">
        <ele>693</ele>
        <time>2022-06-08T22:14:27Z</time>
      </trkpt>
      <trkpt lat="44.07618" lon="6.26899">
        <ele>692</ele>
        <time>2022-06-08T22:14:30Z</time>
      </trkpt>
      <trkpt lat="44.07626" lon="6.2689">
        <ele>691</ele>
        <time>2022-06-08T22:14:32Z</time>
      </trkpt>
      <trkpt lat="44.07631" lon="6.26888">
        <ele>691</ele>
        <time>2022-06-08T22:14:33Z</time>
      </trkpt>
      <trkpt lat="44.07652" lon="6.26894">
        <ele>692</ele>
        <time>2022-06-08T22:14:38Z</time>
      </trkpt>
      <trkpt lat="44.07669" lon="6.26909">
        <ele>694</ele>
        <time>2022-06-08T22:14:43Z</time>
      </trkpt>
      <trkpt lat="44.07706" lon="6.26958">
        <ele>696</ele>
        <time>2022-06-08T22:14:55Z</time>
      </trkpt>
      <trkpt lat="44.07711" lon="6.26977">
        <ele>699</ele>
        <time>2022-06-08T22:14:58Z</time>
      </trkpt>
      <trkpt lat="44.07718" lon="6.27026">
        <ele>708</ele>
        <time>2022-06-08T22:15:07Z</time>
      </trkpt>
      <trkpt lat="44.07727" lon="6.27045">
        <ele>710</ele>
        <time>2022-06-08T22:15:10Z</time>
      </trkpt>
      <trkpt lat="44.07736" lon="6.2705">
        <ele>708</ele>
        <time>2022-06-08T22:15:13Z</time>
      </trkpt>
      <trkpt lat="44.07751" lon="6.27049">
        <ele>702</ele>
        <time>2022-06-08T22:15:16Z</time>
      </trkpt>
      <trkpt lat="44.07752" lon="6.27047">
        <ele>702</ele>
        <time>2022-06-08T22:15:17Z</time>
      </trkpt>
      <trkpt lat="44.07749" lon="6.27041">
        <ele>700</ele>
        <time>2022-06-08T22:15:18Z</time>
      </trkpt>
      <trkpt lat="44.0774" lon="6.27038">
        <ele>703</ele>
        <time>2022-06-08T22:15:20Z</time>
      </trkpt>
      <trkpt lat="44.07759" lon="6.26996">
        <ele>689</ele>
        <time>2022-06-08T22:15:28Z</time>
      </trkpt>
      <trkpt lat="44.07776" lon="6.2697">
        <ele>684</ele>
        <time>2022-06-08T22:15:34Z</time>
      </trkpt>
      <trkpt lat="44.07798" lon="6.26965">
        <ele>684</ele>
        <time>2022-06-08T22:15:39Z</time>
      </trkpt>
      <trkpt lat="44.07844" lon="6.26934">
        <ele>682</ele>
        <time>2022-06-08T22:15:51Z</time>
      </trkpt>
      <trkpt lat="44.07858" lon="6.26922">
        <ele>683</ele>
        <time>2022-06-08T22:15:55Z</time>
      </trkpt>
      <trkpt lat="44.07864" lon="6.26912">
        <ele>683</ele>
        <time>2022-06-08T22:15:57Z</time>
      </trkpt>
      <trkpt lat="44.07866" lon="6.26903">
        <ele>683</ele>
        <time>2022-06-08T22:15:59Z</time>
      </trkpt>
      <trkpt lat="44.07861" lon="6.26831">
        <ele>675</ele>
        <time>2022-06-08T22:16:11Z</time>
      </trkpt>
      <trkpt lat="44.079" lon="6.26794">
        <ele>677</ele>
        <time>2022-06-08T22:16:22Z</time>
      </trkpt>
      <trkpt lat="44.07922" lon="6.26761">
        <ele>675</ele>
        <time>2022-06-08T22:16:30Z</time>
      </trkpt>
      <trkpt lat="44.0793" lon="6.26734">
        <ele>674</ele>
        <time>2022-06-08T22:16:35Z</time>
      </trkpt>
      <trkpt lat="44.07913" lon="6.26685">
        <ele>669</ele>
        <time>2022-06-08T22:16:44Z</time>
      </trkpt>
      <trkpt lat="44.07927" lon="6.26624">
        <ele>668</ele>
        <time>2022-06-08T22:16:55Z</time>
      </trkpt>
      <trkpt lat="44.07931" lon="6.26523">
        <ele>667</ele>
        <time>2022-06-08T22:17:11Z</time>
      </trkpt>
      <trkpt lat="44.07933" lon="6.26346">
        <ele>667</ele>
        <time>2022-06-08T22:17:41Z</time>
      </trkpt>
      <trkpt lat="44.07936" lon="6.26315">
        <ele>667</ele>
        <time>2022-06-08T22:17:46Z</time>
      </trkpt>
      <trkpt lat="44.07948" lon="6.26236">
        <ele>667</ele>
        <time>2022-06-08T22:18:00Z</time>
      </trkpt>
      <trkpt lat="44.0797" lon="6.26184">
        <ele>668</ele>
        <time>2022-06-08T22:18:10Z</time>
      </trkpt>
      <trkpt lat="44.07967" lon="6.26184">
        <ele>668</ele>
        <time>2022-06-08T22:18:11Z</time>
      </trkpt>
      <trkpt lat="44.07955" lon="6.26204">
        <ele>667</ele>
        <time>2022-06-08T22:18:15Z</time>
      </trkpt>
      <trkpt lat="44.07951" lon="6.26198">
        <ele>666</ele>
        <time>2022-06-08T22:18:17Z</time>
      </trkpt>
      <trkpt lat="44.07953" lon="6.26185">
        <ele>665</ele>
        <time>2022-06-08T22:18:19Z</time>
      </trkpt>
      <trkpt lat="44.07949" lon="6.26171">
        <ele>663</ele>
        <time>2022-06-08T22:18:21Z</time>
      </trkpt>
      <trkpt lat="44.07986" lon="6.2604">
        <ele>653</ele>
        <time>2022-06-08T22:18:45Z</time>
      </trkpt>
      <trkpt lat="44.07985" lon="6.26027">
        <ele>653</ele>
        <time>2022-06-08T22:18:47Z</time>
      </trkpt>
      <trkpt lat="44.07977" lon="6.2602">
        <ele>654</ele>
        <time>2022-06-08T22:18:49Z</time>
      </trkpt>
      <trkpt lat="44.07972" lon="6.2601">
        <ele>655</ele>
        <time>2022-06-08T22:18:51Z</time>
      </trkpt>
      <trkpt lat="44.07973" lon="6.26005">
        <ele>655</ele>
        <time>2022-06-08T22:18:52Z</time>
      </trkpt>
      <trkpt lat="44.07982" lon="6.25983">
        <ele>654</ele>
        <time>2022-06-08T22:18:56Z</time>
      </trkpt>
      <trkpt lat="44.08" lon="6.25954">
        <ele>651</ele>
        <time>2022-06-08T22:19:03Z</time>
      </trkpt>
      <trkpt lat="44.08059" lon="6.25771">
        <ele>648</ele>
        <time>2022-06-08T22:19:37Z</time>
      </trkpt>
      <trkpt lat="44.08108" lon="6.25683">
        <ele>645</ele>
        <time>2022-06-08T22:19:55Z</time>
      </trkpt>
      <trkpt lat="44.0815" lon="6.25596">
        <ele>640</ele>
        <time>2022-06-08T22:20:13Z</time>
      </trkpt>
      <trkpt lat="44.0817" lon="6.25515">
        <ele>639</ele>
        <time>2022-06-08T22:20:27Z</time>
      </trkpt>
      <trkpt lat="44.08169" lon="6.25507">
        <ele>639</ele>
        <time>2022-06-08T22:20:29Z</time>
      </trkpt>
      <trkpt lat="44.08181" lon="6.25499">
        <ele>639</ele>
        <time>2022-06-08T22:20:32Z</time>
      </trkpt>
      <trkpt lat="44.08189" lon="6.25472">
        <ele>641</ele>
        <time>2022-06-08T22:20:37Z</time>
      </trkpt>
      <trkpt lat="44.08197" lon="6.2546">
        <ele>641</ele>
        <time>2022-06-08T22:20:39Z</time>
      </trkpt>
      <trkpt lat="44.08218" lon="6.25445">
        <ele>641</ele>
        <time>2022-06-08T22:20:45Z</time>
      </trkpt>
      <trkpt lat="44.08253" lon="6.25433">
        <ele>640</ele>
        <time>2022-06-08T22:20:53Z</time>
      </trkpt>
      <trkpt lat="44.0828" lon="6.25399">
        <ele>640</ele>
        <time>2022-06-08T22:21:02Z</time>
      </trkpt>
      <trkpt lat="44.08394" lon="6.25272">
        <ele>636</ele>
        <time>2022-06-08T22:21:36Z</time>
      </trkpt>
      <trkpt lat="44.08415" lon="6.25274">
        <ele>636</ele>
        <time>2022-06-08T22:21:41Z</time>
      </trkpt>
      <trkpt lat="44.08432" lon="6.25288">
        <ele>642</ele>
        <time>2022-06-08T22:21:45Z</time>
      </trkpt>
      <trkpt lat="44.08435" lon="6.25286">
        <ele>643</ele>
        <time>2022-06-08T22:21:46Z</time>
      </trkpt>
      <trkpt lat="44.08443" lon="6.25264">
        <ele>639</ele>
        <time>2022-06-08T22:21:50Z</time>
      </trkpt>
      <trkpt lat="44.08439" lon="6.2525">
        <ele>634</ele>
        <time>2022-06-08T22:21:53Z</time>
      </trkpt>
      <trkpt lat="44.08438" lon="6.25228">
        <ele>633</ele>
        <time>2022-06-08T22:21:56Z</time>
      </trkpt>
      <trkpt lat="44.08444" lon="6.25162">
        <ele>628</ele>
        <time>2022-06-08T22:22:08Z</time>
      </trkpt>
      <trkpt lat="44.08448" lon="6.25146">
        <ele>630</ele>
        <time>2022-06-08T22:22:11Z</time>
      </trkpt>
      <trkpt lat="44.08459" lon="6.25114">
        <ele>631</ele>
        <time>2022-06-08T22:22:16Z</time>
      </trkpt>
      <trkpt lat="44.08483" lon="6.25059">
        <ele>632</ele>
        <time>2022-06-08T22:22:27Z</time>
      </trkpt>
      <trkpt lat="44.085" lon="6.25036">
        <ele>630</ele>
        <time>2022-06-08T22:22:33Z</time>
      </trkpt>
      <trkpt lat="44.08512" lon="6.25024">
        <ele>630</ele>
        <time>2022-06-08T22:22:36Z</time>
      </trkpt>
      <trkpt lat="44.08525" lon="6.25016">
        <ele>629</ele>
        <time>2022-06-08T22:22:40Z</time>
      </trkpt>
      <trkpt lat="44.08588" lon="6.24992">
        <ele>624</ele>
        <time>2022-06-08T22:22:55Z</time>
      </trkpt>
      <trkpt lat="44.08684" lon="6.2501">
        <ele>624</ele>
        <time>2022-06-08T22:23:17Z</time>
      </trkpt>
      <trkpt lat="44.08704" lon="6.25017">
        <ele>625</ele>
        <time>2022-06-08T22:23:22Z</time>
      </trkpt>
      <trkpt lat="44.08711" lon="6.25024">
        <ele>627</ele>
        <time>2022-06-08T22:23:24Z</time>
      </trkpt>
      <trkpt lat="44.08722" lon="6.25044">
        <ele>630</ele>
        <time>2022-06-08T22:23:28Z</time>
      </trkpt>
      <trkpt lat="44.08725" lon="6.25044">
        <ele>630</ele>
        <time>2022-06-08T22:23:29Z</time>
      </trkpt>
      <trkpt lat="44.08737" lon="6.25034">
        <ele>629</ele>
        <time>2022-06-08T22:23:32Z</time>
      </trkpt>
      <trkpt lat="44.08759" lon="6.25004">
        <ele>623</ele>
        <time>2022-06-08T22:23:40Z</time>
      </trkpt>
      <trkpt lat="44.08771" lon="6.24994">
        <ele>622</ele>
        <time>2022-06-08T22:23:43Z</time>
      </trkpt>
      <trkpt lat="44.08949" lon="6.24902">
        <ele>616</ele>
        <time>2022-06-08T22:24:27Z</time>
      </trkpt>
      <trkpt lat="44.08964" lon="6.24889">
        <ele>616</ele>
        <time>2022-06-08T22:24:31Z</time>
      </trkpt>
      <trkpt lat="44.08973" lon="6.24875">
        <ele>615</ele>
        <time>2022-06-08T22:24:35Z</time>
      </trkpt>
      <trkpt lat="44.08985" lon="6.24848">
        <ele>614</ele>
        <time>2022-06-08T22:24:40Z</time>
      </trkpt>
      <trkpt lat="44.08988" lon="6.24771">
        <ele>614</ele>
        <time>2022-06-08T22:24:53Z</time>
      </trkpt>
      <trkpt lat="44.08995" lon="6.24739">
        <ele>614</ele>
        <time>2022-06-08T22:24:58Z</time>
      </trkpt>
      <trkpt lat="44.09067" lon="6.24574">
        <ele>611</ele>
        <time>2022-06-08T22:25:31Z</time>
      </trkpt>
      <trkpt lat="44.09071" lon="6.24549">
        <ele>611</ele>
        <time>2022-06-08T22:25:35Z</time>
      </trkpt>
      <trkpt lat="44.09069" lon="6.24499">
        <ele>612</ele>
        <time>2022-06-08T22:25:43Z</time>
      </trkpt>
      <trkpt lat="44.09072" lon="6.24485">
        <ele>612</ele>
        <time>2022-06-08T22:25:46Z</time>
      </trkpt>
      <trkpt lat="44.0908" lon="6.24466">
        <ele>611</ele>
        <time>2022-06-08T22:25:50Z</time>
      </trkpt>
      <trkpt lat="44.09114" lon="6.24408">
        <ele>622</ele>
        <time>2022-06-08T22:26:02Z</time>
      </trkpt>
      <trkpt lat="44.09118" lon="6.24385">
        <ele>622</ele>
        <time>2022-06-08T22:26:06Z</time>
      </trkpt>
      <trkpt lat="44.0912" lon="6.24347">
        <ele>620</ele>
        <time>2022-06-08T22:26:13Z</time>
      </trkpt>
      <trkpt lat="44.09118" lon="6.2432">
        <ele>618</ele>
        <time>2022-06-08T22:26:17Z</time>
      </trkpt>
      <trkpt lat="44.09112" lon="6.24304">
        <ele>615</ele>
        <time>2022-06-08T22:26:20Z</time>
      </trkpt>
      <trkpt lat="44.09049" lon="6.24184">
        <ele>605</ele>
        <time>2022-06-08T22:26:45Z</time>
      </trkpt>
      <trkpt lat="44.08999" lon="6.2408">
        <ele>604</ele>
        <time>2022-06-08T22:27:06Z</time>
      </trkpt>
      <trkpt lat="44.0897" lon="6.23964">
        <ele>605</ele>
        <time>2022-06-08T22:27:27Z</time>
      </trkpt>
      <trkpt lat="44.08984" lon="6.23851">
        <ele>601</ele>
        <time>2022-06-08T22:27:46Z</time>
      </trkpt>
      <trkpt lat="44.09011" lon="6.23722">
        <ele>600</ele>
        <time>2022-06-08T22:28:08Z</time>
      </trkpt>
      <trkpt lat="44.09021" lon="6.237">
        <ele>601</ele>
        <time>2022-06-08T22:28:13Z</time>
      </trkpt>
      <trkpt lat="44.09023" lon="6.23662">
        <ele>601</ele>
        <time>2022-06-08T22:28:19Z</time>
      </trkpt>
      <trkpt lat="44.09046" lon="6.23551">
        <ele>602</ele>
        <time>2022-06-08T22:28:39Z</time>
      </trkpt>
      <trkpt lat="44.09055" lon="6.23397">
        <ele>598</ele>
        <time>2022-06-08T22:29:04Z</time>
      </trkpt>
      <trkpt lat="44.09066" lon="6.23322">
        <ele>596</ele>
        <time>2022-06-08T22:29:17Z</time>
      </trkpt>
      <trkpt lat="44.09097" lon="6.23177">
        <ele>595</ele>
        <time>2022-06-08T22:29:43Z</time>
      </trkpt>
      <trkpt lat="44.09099" lon="6.23179">
        <ele>595</ele>
        <time>2022-06-08T22:29:43Z</time>
      </trkpt>
      <trkpt lat="44.09098" lon="6.23186">
        <ele>595</ele>
        <time>2022-06-08T22:29:44Z</time>
      </trkpt>
      <trkpt lat="44.09102" lon="6.23189">
        <ele>596</ele>
        <time>2022-06-08T22:29:46Z</time>
      </trkpt>
      <trkpt lat="44.09101" lon="6.23185">
        <ele>596</ele>
        <time>2022-06-08T22:29:46Z</time>
      </trkpt>
      <trkpt lat="44.09096" lon="6.2319">
        <ele>595</ele>
        <time>2022-06-08T22:29:48Z</time>
      </trkpt>
      <trkpt lat="44.09102" lon="6.23183">
        <ele>596</ele>
        <time>2022-06-08T22:29:49Z</time>
      </trkpt>
      <trkpt lat="44.091" lon="6.23186">
        <ele>595</ele>
        <time>2022-06-08T22:29:50Z</time>
      </trkpt>
      <trkpt lat="44.09095" lon="6.23182">
        <ele>595</ele>
        <time>2022-06-08T22:29:52Z</time>
      </trkpt>
      <trkpt lat="44.09101" lon="6.23183">
        <ele>596</ele>
        <time>2022-06-08T22:29:53Z</time>
      </trkpt>
      <trkpt lat="44.09099" lon="6.23185">
        <ele>595</ele>
        <time>2022-06-08T22:29:54Z</time>
      </trkpt>
      <trkpt lat="44.09099" lon="6.23169">
        <ele>595</ele>
        <time>2022-06-08T22:29:56Z</time>
      </trkpt>
      <trkpt lat="44.09116" lon="6.23138">
        <ele>595</ele>
        <time>2022-06-08T22:30:03Z</time>
      </trkpt>
      <trkpt lat="44.09104" lon="6.23081">
        <ele>593</ele>
        <time>2022-06-08T22:30:13Z</time>
      </trkpt>
      <trkpt lat="44.09119" lon="6.229">
        <ele>596</ele>
        <time>2022-06-08T22:30:43Z</time>
      </trkpt>
      <trkpt lat="44.09117" lon="6.22883">
        <ele>598</ele>
        <time>2022-06-08T22:30:46Z</time>
      </trkpt>
      <trkpt lat="44.09111" lon="6.22866">
        <ele>601</ele>
        <time>2022-06-08T22:30:49Z</time>
      </trkpt>
      <trkpt lat="44.09105" lon="6.22858">
        <ele>602</ele>
        <time>2022-06-08T22:30:51Z</time>
      </trkpt>
      <trkpt lat="44.09091" lon="6.22848">
        <ele>602</ele>
        <time>2022-06-08T22:30:55Z</time>
      </trkpt>
      <trkpt lat="44.09006" lon="6.22825">
        <ele>598</ele>
        <time>2022-06-08T22:31:15Z</time>
      </trkpt>
      <trkpt lat="44.08968" lon="6.22786">
        <ele>598</ele>
        <time>2022-06-08T22:31:26Z</time>
      </trkpt>
      <trkpt lat="44.08964" lon="6.22778">
        <ele>599</ele>
        <time>2022-06-08T22:31:28Z</time>
      </trkpt>
      <trkpt lat="44.0896" lon="6.22775">
        <ele>598</ele>
        <time>2022-06-08T22:31:29Z</time>
      </trkpt>
      <trkpt lat="44.08934" lon="6.2277">
        <ele>595</ele>
        <time>2022-06-08T22:31:35Z</time>
      </trkpt>
      <trkpt lat="44.08799" lon="6.22654">
        <ele>587</ele>
        <time>2022-06-08T22:32:12Z</time>
      </trkpt>
      <trkpt lat="44.08781" lon="6.22661">
        <ele>586</ele>
        <time>2022-06-08T22:32:16Z</time>
      </trkpt>
      <trkpt lat="44.08701" lon="6.22592">
        <ele>584</ele>
        <time>2022-06-08T22:32:38Z</time>
      </trkpt>
      <trkpt lat="44.0865" lon="6.22552">
        <ele>583</ele>
        <time>2022-06-08T22:32:52Z</time>
      </trkpt>
      <trkpt lat="44.08587" lon="6.22486">
        <ele>582</ele>
        <time>2022-06-08T22:33:10Z</time>
      </trkpt>
      <trkpt lat="44.08532" lon="6.22398">
        <ele>584</ele>
        <time>2022-06-08T22:33:30Z</time>
      </trkpt>
      <trkpt lat="44.08479" lon="6.2229">
        <ele>583</ele>
        <time>2022-06-08T22:33:52Z</time>
      </trkpt>
      <trkpt lat="44.0839" lon="6.22125">
        <ele>581</ele>
        <time>2022-06-08T22:34:27Z</time>
      </trkpt>
      <trkpt lat="44.08335" lon="6.2201">
        <ele>580</ele>
        <time>2022-06-08T22:34:50Z</time>
      </trkpt>
      <trkpt lat="44.08262" lon="6.21823">
        <ele>579</ele>
        <time>2022-06-08T22:35:25Z</time>
      </trkpt>
      <trkpt lat="44.08247" lon="6.21757">
        <ele>579</ele>
        <time>2022-06-08T22:35:37Z</time>
      </trkpt>
      <trkpt lat="44.08248" lon="6.21755">
        <ele>579</ele>
        <time>2022-06-08T22:35:38Z</time>
      </trkpt>
      <trkpt lat="44.0832" lon="6.21756">
        <ele>581</ele>
        <time>2022-06-08T22:35:54Z</time>
      </trkpt>
      <trkpt lat="44.08332" lon="6.21765">
        <ele>581</ele>
        <time>2022-06-08T22:35:58Z</time>
      </trkpt>
      <trkpt lat="44.08341" lon="6.21781">
        <ele>581</ele>
        <time>2022-06-08T22:36:01Z</time>
      </trkpt>
      <trkpt lat="44.08343" lon="6.21774">
        <ele>581</ele>
        <time>2022-06-08T22:36:02Z</time>
      </trkpt>
      <trkpt lat="44.08339" lon="6.21766">
        <ele>581</ele>
        <time>2022-06-08T22:36:04Z</time>
      </trkpt>
      <trkpt lat="44.08337" lon="6.21751">
        <ele>581</ele>
        <time>2022-06-08T22:36:06Z</time>
      </trkpt>
      <trkpt lat="44.08391" lon="6.21713">
        <ele>582</ele>
        <time>2022-06-08T22:36:21Z</time>
      </trkpt>
      <trkpt lat="44.08385" lon="6.21696">
        <ele>582</ele>
        <time>2022-06-08T22:36:24Z</time>
      </trkpt>
      <trkpt lat="44.08383" lon="6.21677">
        <ele>583</ele>
        <time>2022-06-08T22:36:27Z</time>
      </trkpt>
      <trkpt lat="44.08391" lon="6.21631">
        <ele>583</ele>
        <time>2022-06-08T22:36:35Z</time>
      </trkpt>
      <trkpt lat="44.08396" lon="6.21627">
        <ele>583</ele>
        <time>2022-06-08T22:36:36Z</time>
      </trkpt>
      <trkpt lat="44.08399" lon="6.21579">
        <ele>583</ele>
        <time>2022-06-08T22:36:44Z</time>
      </trkpt>
      <trkpt lat="44.08393" lon="6.21574">
        <ele>583</ele>
        <time>2022-06-08T22:36:46Z</time>
      </trkpt>
      <trkpt lat="44.08388" lon="6.21573">
        <ele>582</ele>
        <time>2022-06-08T22:36:47Z</time>
      </trkpt>
      <trkpt lat="44.08347" lon="6.21572">
        <ele>580</ele>
        <time>2022-06-08T22:36:57Z</time>
      </trkpt>
      <trkpt lat="44.08342" lon="6.21568">
        <ele>580</ele>
        <time>2022-06-08T22:36:58Z</time>
      </trkpt>
      <trkpt lat="44.08333" lon="6.21544">
        <ele>579</ele>
        <time>2022-06-08T22:37:03Z</time>
      </trkpt>
      <trkpt lat="44.08322" lon="6.21465">
        <ele>578</ele>
        <time>2022-06-08T22:37:16Z</time>
      </trkpt>
      <trkpt lat="44.08321" lon="6.21427">
        <ele>577</ele>
        <time>2022-06-08T22:37:22Z</time>
      </trkpt>
      <trkpt lat="44.0832" lon="6.2145">
        <ele>577</ele>
        <time>2022-06-08T22:37:26Z</time>
      </trkpt>
      <trkpt lat="44.08323" lon="6.21496">
        <ele>578</ele>
        <time>2022-06-08T22:37:34Z</time>
      </trkpt>
      <trkpt lat="44.08335" lon="6.21565">
        <ele>580</ele>
        <time>2022-06-08T22:37:46Z</time>
      </trkpt>
      <trkpt lat="44.08361" lon="6.21574">
        <ele>581</ele>
        <time>2022-06-08T22:37:52Z</time>
      </trkpt>
      <trkpt lat="44.08392" lon="6.21576">
        <ele>583</ele>
        <time>2022-06-08T22:37:59Z</time>
      </trkpt>
      <trkpt lat="44.08399" lon="6.21602">
        <ele>583</ele>
        <time>2022-06-08T22:38:04Z</time>
      </trkpt>
      <trkpt lat="44.08407" lon="6.2161">
        <ele>584</ele>
        <time>2022-06-08T22:38:06Z</time>
      </trkpt>
      <trkpt lat="44.08382" lon="6.21638">
        <ele>583</ele>
        <time>2022-06-08T22:38:14Z</time>
      </trkpt>
      <trkpt lat="44.08382" lon="6.21651">
        <ele>583</ele>
        <time>2022-06-08T22:38:16Z</time>
      </trkpt>
      <trkpt lat="44.08389" lon="6.21652">
        <ele>583</ele>
        <time>2022-06-08T22:38:18Z</time>
      </trkpt>
      <trkpt lat="44.08386" lon="6.21636">
        <ele>583</ele>
        <time>2022-06-08T22:38:20Z</time>
      </trkpt>
      <trkpt lat="44.08387" lon="6.21643">
        <ele>583</ele>
        <time>2022-06-08T22:38:22Z</time>
      </trkpt>
      <trkpt lat="44.08401" lon="6.21643">
        <ele>583</ele>
        <time>2022-06-08T22:38:25Z</time>
      </trkpt>
      <trkpt lat="44.0841" lon="6.21635">
        <ele>584</ele>
        <time>2022-06-08T22:38:27Z</time>
      </trkpt>
      <trkpt lat="44.08405" lon="6.21634">
        <ele>584</ele>
        <time>2022-06-08T22:38:29Z</time>
      </trkpt>
      <trkpt lat="44.08395" lon="6.21645">
        <ele>583</ele>
        <time>2022-06-08T22:38:32Z</time>
      </trkpt>
      <trkpt lat="44.08386" lon="6.21645">
        <ele>583</ele>
        <time>2022-06-08T22:38:34Z</time>
      </trkpt>
      <trkpt lat="44.08398" lon="6.21647">
        <ele>583</ele>
        <time>2022-06-08T22:38:37Z</time>
      </trkpt>
      <trkpt lat="44.0839" lon="6.21639">
        <ele>583</ele>
        <time>2022-06-08T22:38:39Z</time>
      </trkpt>
      <trkpt lat="44.08377" lon="6.21643">
        <ele>582</ele>
        <time>2022-06-08T22:38:42Z</time>
      </trkpt>
      <trkpt lat="44.08398" lon="6.21637">
        <ele>583</ele>
        <time>2022-06-08T22:38:47Z</time>
      </trkpt>
      <trkpt lat="44.08399" lon="6.21651">
        <ele>583</ele>
        <time>2022-06-08T22:38:49Z</time>
      </trkpt>
      <trkpt lat="44.08388" lon="6.21651">
        <ele>583</ele>
        <time>2022-06-08T22:38:52Z</time>
      </trkpt>
      <trkpt lat="44.08392" lon="6.21654">
        <ele>583</ele>
        <time>2022-06-08T22:38:53Z</time>
      </trkpt>
      <trkpt lat="44.08388" lon="6.21655">
        <ele>583</ele>
        <time>2022-06-08T22:38:54Z</time>
      </trkpt>
      <trkpt lat="44.08364" lon="6.21645">
        <ele>582</ele>
        <time>2022-06-08T22:39:00Z</time>
      </trkpt>
      <trkpt lat="44.08377" lon="6.21637">
        <ele>582</ele>
        <time>2022-06-08T22:39:03Z</time>
      </trkpt>
      <trkpt lat="44.08387" lon="6.21642">
        <ele>583</ele>
        <time>2022-06-08T22:39:06Z</time>
      </trkpt>
      <trkpt lat="44.08384" lon="6.21641">
        <ele>583</ele>
        <time>2022-06-08T22:39:06Z</time>
      </trkpt>
      <trkpt lat="44.08387" lon="6.21645">
        <ele>583</ele>
        <time>2022-06-08T22:39:07Z</time>
      </trkpt>
      <trkpt lat="44.08396" lon="6.21646">
        <ele>583</ele>
        <time>2022-06-08T22:39:09Z</time>
      </trkpt>
      <trkpt lat="44.08419" lon="6.21637">
        <ele>584</ele>
        <time>2022-06-08T22:39:15Z</time>
      </trkpt>
      <trkpt lat="44.08418" lon="6.21625">
        <ele>584</ele>
        <time>2022-06-08T22:39:17Z</time>
      </trkpt>
      <trkpt lat="44.08394" lon="6.21644">
        <ele>583</ele>
        <time>2022-06-08T22:39:23Z</time>
      </trkpt>
      <trkpt lat="44.08389" lon="6.21643">
        <ele>583</ele>
        <time>2022-06-08T22:39:25Z</time>
      </trkpt>
      <trkpt lat="44.08399" lon="6.21632">
        <ele>583</ele>
        <time>2022-06-08T22:39:28Z</time>
      </trkpt>
      <trkpt lat="44.08398" lon="6.2163">
        <ele>583</ele>
        <time>2022-06-08T22:39:28Z</time>
      </trkpt>
      <trkpt lat="44.0838" lon="6.21632">
        <ele>582</ele>
        <time>2022-06-08T22:39:32Z</time>
      </trkpt>
      <trkpt lat="44.08395" lon="6.21639">
        <ele>583</ele>
        <time>2022-06-08T22:39:36Z</time>
      </trkpt>
      <trkpt lat="44.08396" lon="6.21626">
        <ele>583</ele>
        <time>2022-06-08T22:39:38Z</time>
      </trkpt>
      <trkpt lat="44.08388" lon="6.21635">
        <ele>583</ele>
        <time>2022-06-08T22:39:40Z</time>
      </trkpt>
      <trkpt lat="44.08367" lon="6.21648">
        <ele>582</ele>
        <time>2022-06-08T22:39:46Z</time>
      </trkpt>
      <trkpt lat="44.08371" lon="6.21643">
        <ele>582</ele>
        <time>2022-06-08T22:39:47Z</time>
      </trkpt>
      <trkpt lat="44.0838" lon="6.2164">
        <ele>583</ele>
        <time>2022-06-08T22:39:49Z</time>
      </trkpt>
      <trkpt lat="44.08393" lon="6.21642">
        <ele>583</ele>
        <time>2022-06-08T22:39:52Z</time>
      </trkpt>
      <trkpt lat="44.08408" lon="6.21631">
        <ele>584</ele>
        <time>2022-06-08T22:39:56Z</time>
      </trkpt>
      <trkpt lat="44.08402" lon="6.21646">
        <ele>583</ele>
        <time>2022-06-08T22:39:59Z</time>
      </trkpt>
      <trkpt lat="44.08417" lon="6.21644">
        <ele>584</ele>
        <time>2022-06-08T22:40:03Z</time>
      </trkpt>
      <trkpt lat="44.08426" lon="6.2163">
        <ele>584</ele>
        <time>2022-06-08T22:40:06Z</time>
      </trkpt>
      <trkpt lat="44.08421" lon="6.21633">
        <ele>584</ele>
        <time>2022-06-08T22:40:07Z</time>
      </trkpt>
      <trkpt lat="44.08443" lon="6.21636">
        <ele>585</ele>
        <time>2022-06-08T22:40:12Z</time>
      </trkpt>
      <trkpt lat="44.08436" lon="6.21631">
        <ele>584</ele>
        <time>2022-06-08T22:40:14Z</time>
      </trkpt>
      <trkpt lat="44.08408" lon="6.21629">
        <ele>584</ele>
        <time>2022-06-08T22:40:21Z</time>
      </trkpt>
      <trkpt lat="44.08404" lon="6.21646">
        <ele>584</ele>
        <time>2022-06-08T22:40:24Z</time>
      </trkpt>
      <trkpt lat="44.08428" lon="6.21644">
        <ele>584</ele>
        <time>2022-06-08T22:40:29Z</time>
      </trkpt>
      <trkpt lat="44.08393" lon="6.21644">
        <ele>583</ele>
        <time>2022-06-08T22:40:37Z</time>
      </trkpt>
      <trkpt lat="44.08394" lon="6.2165">
        <ele>583</ele>
        <time>2022-06-08T22:40:38Z</time>
      </trkpt>
      <trkpt lat="44.08397" lon="6.21648">
        <ele>583</ele>
        <time>2022-06-08T22:40:39Z</time>
      </trkpt>
      <trkpt lat="44.08382" lon="6.21647">
        <ele>583</ele>
        <time>2022-06-08T22:40:43Z</time>
      </trkpt>
      <trkpt lat="44.0838" lon="6.2165">
        <ele>583</ele>
        <time>2022-06-08T22:40:43Z</time>
      </trkpt>
      <trkpt lat="44.08389" lon="6.21641">
        <ele>583</ele>
        <time>2022-06-08T22:40:46Z</time>
      </trkpt>
      <trkpt lat="44.08401" lon="6.21651">
        <ele>583</ele>
        <time>2022-06-08T22:40:49Z</time>
      </trkpt>
      <trkpt lat="44.08402" lon="6.21637">
        <ele>583</ele>
        <time>2022-06-08T22:40:52Z</time>
      </trkpt>
      <trkpt lat="44.084" lon="6.21643">
        <ele>583</ele>
        <time>2022-06-08T22:40:53Z</time>
      </trkpt>
      <trkpt lat="44.08409" lon="6.2164">
        <ele>584</ele>
        <time>2022-06-08T22:40:55Z</time>
      </trkpt>
      <trkpt lat="44.08405" lon="6.21637">
        <ele>584</ele>
        <time>2022-06-08T22:40:56Z</time>
      </trkpt>
      <trkpt lat="44.08389" lon="6.21644">
        <ele>583</ele>
        <time>2022-06-08T22:41:00Z</time>
      </trkpt>
      <trkpt lat="44.08413" lon="6.21647">
        <ele>584</ele>
        <time>2022-06-08T22:41:06Z</time>
      </trkpt>
      <trkpt lat="44.08418" lon="6.21643">
        <ele>584</ele>
        <time>2022-06-08T22:41:07Z</time>
      </trkpt>
      <trkpt lat="44.08403" lon="6.21639">
        <ele>583</ele>
        <time>2022-06-08T22:41:10Z</time>
      </trkpt>
      <trkpt lat="44.084" lon="6.21631">
        <ele>583</ele>
        <time>2022-06-08T22:41:12Z</time>
      </trkpt>
      <trkpt lat="44.08384" lon="6.21635">
        <ele>583</ele>
        <time>2022-06-08T22:41:16Z</time>
      </trkpt>
      <trkpt lat="44.08387" lon="6.21648">
        <ele>583</ele>
        <time>2022-06-08T22:41:18Z</time>
      </trkpt>
      <trkpt lat="44.08399" lon="6.2165">
        <ele>583</ele>
        <time>2022-06-08T22:41:21Z</time>
      </trkpt>
      <trkpt lat="44.08406" lon="6.21642">
        <ele>584</ele>
        <time>2022-06-08T22:41:23Z</time>
      </trkpt>
      <trkpt lat="44.08406" lon="6.21646">
        <ele>584</ele>
        <time>2022-06-08T22:41:24Z</time>
      </trkpt>
      <trkpt lat="44.0839" lon="6.2165">
        <ele>583</ele>
        <time>2022-06-08T22:41:27Z</time>
      </trkpt>
      <trkpt lat="44.08387" lon="6.21643">
        <ele>583</ele>
        <time>2022-06-08T22:41:29Z</time>
      </trkpt>
      <trkpt lat="44.08389" lon="6.21638">
        <ele>583</ele>
        <time>2022-06-08T22:41:30Z</time>
      </trkpt>
      <trkpt lat="44.08405" lon="6.21638">
        <ele>584</ele>
        <time>2022-06-08T22:41:34Z</time>
      </trkpt>
      <trkpt lat="44.08408" lon="6.21632">
        <ele>584</ele>
        <time>2022-06-08T22:41:35Z</time>
      </trkpt>
      <trkpt lat="44.08413" lon="6.21631">
        <ele>584</ele>
        <time>2022-06-08T22:41:36Z</time>
      </trkpt>
      <trkpt lat="44.08405" lon="6.2165">
        <ele>584</ele>
        <time>2022-06-08T22:41:40Z</time>
      </trkpt>
      <trkpt lat="44.08401" lon="6.2165">
        <ele>583</ele>
        <time>2022-06-08T22:41:41Z</time>
      </trkpt>
      <trkpt lat="44.08401" lon="6.21639">
        <ele>583</ele>
        <time>2022-06-08T22:41:42Z</time>
      </trkpt>
      <trkpt lat="44.08396" lon="6.21641">
        <ele>583</ele>
        <time>2022-06-08T22:41:44Z</time>
      </trkpt>
      <trkpt lat="44.08396" lon="6.21635">
        <ele>583</ele>
        <time>2022-06-08T22:41:45Z</time>
      </trkpt>
      <trkpt lat="44.08396" lon="6.21643">
        <ele>583</ele>
        <time>2022-06-08T22:41:46Z</time>
      </trkpt>
      <trkpt lat="44.08395" lon="6.21639">
        <ele>583</ele>
        <time>2022-06-08T22:41:47Z</time>
      </trkpt>
      <trkpt lat="44.08399" lon="6.21642">
        <ele>583</ele>
        <time>2022-06-08T22:41:48Z</time>
      </trkpt>
      <trkpt lat="44.08404" lon="6.21641">
        <ele>583</ele>
        <time>2022-06-08T22:41:49Z</time>
      </trkpt>
      <trkpt lat="44.08406" lon="6.21646">
        <ele>584</ele>
        <time>2022-06-08T22:41:50Z</time>
      </trkpt>
      <trkpt lat="44.08421" lon="6.21638">
        <ele>584</ele>
        <time>2022-06-08T22:41:54Z</time>
      </trkpt>
      <trkpt lat="44.0842" lon="6.21635">
        <ele>584</ele>
        <time>2022-06-08T22:41:54Z</time>
      </trkpt>
      <trkpt lat="44.08413" lon="6.21636">
        <ele>584</ele>
        <time>2022-06-08T22:41:56Z</time>
      </trkpt>
      <trkpt lat="44.08401" lon="6.21633">
        <ele>583</ele>
        <time>2022-06-08T22:41:59Z</time>
      </trkpt>
      <trkpt lat="44.08385" lon="6.21644">
        <ele>583</ele>
        <time>2022-06-08T22:42:03Z</time>
      </trkpt>
      <trkpt lat="44.08411" lon="6.21629">
        <ele>584</ele>
        <time>2022-06-08T22:42:09Z</time>
      </trkpt>
      <trkpt lat="44.08412" lon="6.21637">
        <ele>584</ele>
        <time>2022-06-08T22:42:11Z</time>
      </trkpt>
      <trkpt lat="44.08417" lon="6.21636">
        <ele>584</ele>
        <time>2022-06-08T22:42:12Z</time>
      </trkpt>
      <trkpt lat="44.08407" lon="6.21641">
        <ele>584</ele>
        <time>2022-06-08T22:42:14Z</time>
      </trkpt>
      <trkpt lat="44.08399" lon="6.21658">
        <ele>583</ele>
        <time>2022-06-08T22:42:18Z</time>
      </trkpt>
      <trkpt lat="44.08386" lon="6.21654">
        <ele>583</ele>
        <time>2022-06-08T22:42:21Z</time>
      </trkpt>
      <trkpt lat="44.08377" lon="6.21632">
        <ele>582</ele>
        <time>2022-06-08T22:42:25Z</time>
      </trkpt>
      <trkpt lat="44.08399" lon="6.2163">
        <ele>583</ele>
        <time>2022-06-08T22:42:30Z</time>
      </trkpt>
      <trkpt lat="44.08408" lon="6.21633">
        <ele>584</ele>
        <time>2022-06-08T22:42:32Z</time>
      </trkpt>
      <trkpt lat="44.08403" lon="6.21636">
        <ele>583</ele>
        <time>2022-06-08T22:42:34Z</time>
      </trkpt>
      <trkpt lat="44.08395" lon="6.21636">
        <ele>583</ele>
        <time>2022-06-08T22:42:36Z</time>
      </trkpt>
      <trkpt lat="44.08392" lon="6.21632">
        <ele>583</ele>
        <time>2022-06-08T22:42:37Z</time>
      </trkpt>
      <trkpt lat="44.08384" lon="6.21652">
        <ele>583</ele>
        <time>2022-06-08T22:42:40Z</time>
      </trkpt>
      <trkpt lat="44.08388" lon="6.21655">
        <ele>583</ele>
        <time>2022-06-08T22:42:41Z</time>
      </trkpt>
      <trkpt lat="44.08388" lon="6.21648">
        <ele>583</ele>
        <time>2022-06-08T22:42:43Z</time>
      </trkpt>
      <trkpt lat="44.08384" lon="6.2164">
        <ele>583</ele>
        <time>2022-06-08T22:42:44Z</time>
      </trkpt>
      <trkpt lat="44.0839" lon="6.21634">
        <ele>583</ele>
        <time>2022-06-08T22:42:46Z</time>
      </trkpt>
      <trkpt lat="44.08404" lon="6.21646">
        <ele>584</ele>
        <time>2022-06-08T22:42:50Z</time>
      </trkpt>
      <trkpt lat="44.0839" lon="6.21658">
        <ele>583</ele>
        <time>2022-06-08T22:42:54Z</time>
      </trkpt>
      <trkpt lat="44.08405" lon="6.21645">
        <ele>584</ele>
        <time>2022-06-08T22:42:58Z</time>
      </trkpt>
      <trkpt lat="44.08403" lon="6.21656">
        <ele>583</ele>
        <time>2022-06-08T22:43:00Z</time>
      </trkpt>
      <trkpt lat="44.08403" lon="6.21649">
        <ele>583</ele>
        <time>2022-06-08T22:43:01Z</time>
      </trkpt>
      <trkpt lat="44.08411" lon="6.21642">
        <ele>584</ele>
        <time>2022-06-08T22:43:03Z</time>
      </trkpt>
      <trkpt lat="44.08399" lon="6.2165">
        <ele>583</ele>
        <time>2022-06-08T22:43:06Z</time>
      </trkpt>
      <trkpt lat="44.08398" lon="6.21646">
        <ele>583</ele>
        <time>2022-06-08T22:43:07Z</time>
      </trkpt>
      <trkpt lat="44.08396" lon="6.21648">
        <ele>583</ele>
        <time>2022-06-08T22:43:08Z</time>
      </trkpt>
      <trkpt lat="44.08399" lon="6.21659">
        <ele>583</ele>
        <time>2022-06-08T22:43:09Z</time>
      </trkpt>
      <trkpt lat="44.08397" lon="6.21631">
        <ele>583</ele>
        <time>2022-06-08T22:43:14Z</time>
      </trkpt>
      <trkpt lat="44.08396" lon="6.21637">
        <ele>583</ele>
        <time>2022-06-08T22:43:15Z</time>
      </trkpt>
      <trkpt lat="44.0839" lon="6.21642">
        <ele>583</ele>
        <time>2022-06-08T22:43:17Z</time>
      </trkpt>
      <trkpt lat="44.084" lon="6.21634">
        <ele>583</ele>
        <time>2022-06-08T22:43:20Z</time>
      </trkpt>
      <trkpt lat="44.08395" lon="6.21641">
        <ele>583</ele>
        <time>2022-06-08T22:43:21Z</time>
      </trkpt>
      <trkpt lat="44.08403" lon="6.21656">
        <ele>583</ele>
        <time>2022-06-08T22:43:24Z</time>
      </trkpt>
      <trkpt lat="44.08395" lon="6.21638">
        <ele>583</ele>
        <time>2022-06-08T22:43:28Z</time>
      </trkpt>
      <trkpt lat="44.08398" lon="6.21634">
        <ele>583</ele>
        <time>2022-06-08T22:43:29Z</time>
      </trkpt>
      <trkpt lat="44.08402" lon="6.21637">
        <ele>583</ele>
        <time>2022-06-08T22:43:30Z</time>
      </trkpt>
      <trkpt lat="44.0841" lon="6.21632">
        <ele>584</ele>
        <time>2022-06-08T22:43:32Z</time>
      </trkpt>
      <trkpt lat="44.08397" lon="6.21654">
        <ele>583</ele>
        <time>2022-06-08T22:43:37Z</time>
      </trkpt>
      <trkpt lat="44.08388" lon="6.21638">
        <ele>583</ele>
        <time>2022-06-08T22:43:40Z</time>
      </trkpt>
      <trkpt lat="44.0839" lon="6.21626">
        <ele>583</ele>
        <time>2022-06-08T22:43:42Z</time>
      </trkpt>
      <trkpt lat="44.08409" lon="6.21633">
        <ele>584</ele>
        <time>2022-06-08T22:43:47Z</time>
      </trkpt>
      <trkpt lat="44.08403" lon="6.21632">
        <ele>583</ele>
        <time>2022-06-08T22:43:48Z</time>
      </trkpt>
      <trkpt lat="44.08411" lon="6.21646">
        <ele>584</ele>
        <time>2022-06-08T22:43:51Z</time>
      </trkpt>
    </trkseg>
  </trk>
</gpx>